Time,TemperatureF,DewpointF,PressureIn,WindDirection,WindDirectionDegrees,WindSpeedMPH,WindSpeedGustMPH,Humidity,HourlyPrecipIn,Conditions,Clouds,dailyrainin,SoftwareType,DateUTC
2013-12-30 00:02:00,35.0,29.5,30.17,North,354,11.0,11.0,80,0.00,,,0.01,Wunderground v.1.15,2013-12-30 06:02:00,
2013-12-30 00:05:00,35.0,29.5,30.17,North,0,10.0,13.0,80,0.00,,,0.00,Wunderground v.1.15,2013-12-30 06:05:00,
2013-12-30 00:07:00,35.0,29.5,30.17,NE,34,10.0,13.0,80,0.00,,,0.00,Wunderground v.1.15,2013-12-30 06:07:00,
2013-12-30 00:09:00,35.0,29.5,30.17,North,0,9.0,14.0,80,0.00,,,0.00,Wunderground v.1.15,2013-12-30 06:09:00,
2013-12-30 00:12:00,35.0,29.5,30.17,North,0,9.0,12.0,80,0.00,,,0.00,Wunderground v.1.15,2013-12-30 06:12:00,
2013-12-30 00:13:00,35.0,29.5,30.17,North,0,9.0,12.0,80,0.00,,,0.00,Wunderground v.1.15,2013-12-30 06:13:00,
2013-12-30 00:15:00,35.0,29.5,30.17,NNW,343,10.0,12.0,80,0.00,,,0.00,Wunderground v.1.15,2013-12-30 06:15:00,
2013-12-30 00:16:00,35.0,29.5,30.17,NNW,335,10.0,12.0,80,0.00,,,0.00,Wunderground v.1.15,2013-12-30 06:16:00,
2013-12-30 00:17:00,35.0,29.5,30.17,North,357,9.0,12.0,80,0.00,,,0.00,Wunderground v.1.15,2013-12-30 06:17:00,
2013-12-30 00:18:00,35.0,29.1,30.17,NNW,328,10.0,12.0,79,0.00,,,0.00,Wunderground v.1.15,2013-12-30 06:18:00,
2013-12-30 00:22:00,34.9,29.0,30.17,NNW,340,10.0,10.0,79,0.00,,,0.00,Wunderground v.1.15,2013-12-30 06:22:00,
2013-12-30 00:23:00,34.9,29.0,30.17,NNW,330,10.0,10.0,79,0.00,,,0.00,Wunderground v.1.15,2013-12-30 06:23:00,
2013-12-30 00:24:00,34.9,29.0,30.17,North,3,10.0,11.0,79,0.00,,,0.00,Wunderground v.1.15,2013-12-30 06:24:00,
2013-12-30 00:25:00,34.9,29.0,30.17,North,359,10.0,14.0,79,0.00,,,0.00,Wunderground v.1.15,2013-12-30 06:25:00,
2013-12-30 00:28:00,34.9,29.0,30.17,North,8,11.0,17.0,79,0.00,,,0.00,Wunderground v.1.15,2013-12-30 06:28:00,
2013-12-30 00:29:00,34.7,28.9,30.17,NNW,347,11.0,17.0,79,0.00,,,0.00,Wunderground v.1.15,2013-12-30 06:29:00,
2013-12-30 00:32:00,34.9,29.0,30.17,NNW,337,10.0,11.0,79,0.00,,,0.00,Wunderground v.1.15,2013-12-30 06:32:00,
2013-12-30 00:33:00,34.9,29.0,30.16,NNW,337,10.0,18.0,79,0.00,,,0.00,Wunderground v.1.15,2013-12-30 06:33:00,
2013-12-30 00:34:00,34.9,29.0,30.16,NNW,328,10.0,18.0,79,0.00,,,0.00,Wunderground v.1.15,2013-12-30 06:34:00,
2013-12-30 00:35:00,34.9,29.0,30.16,NNE,21,10.0,18.0,79,0.00,,,0.00,Wunderground v.1.15,2013-12-30 06:35:00,
2013-12-30 00:42:00,34.9,29.0,30.16,NNW,340,9.0,11.0,79,0.00,,,0.00,Wunderground v.1.15,2013-12-30 06:42:00,
2013-12-30 00:43:00,34.9,29.0,30.16,North,356,9.0,11.0,79,0.00,,,0.00,Wunderground v.1.15,2013-12-30 06:43:00,
2013-12-30 00:44:00,34.9,29.0,30.16,North,349,9.0,11.0,79,0.00,,,0.00,Wunderground v.1.15,2013-12-30 06:44:00,
2013-12-30 00:45:00,34.9,29.0,30.16,North,3,9.0,11.0,79,0.00,,,0.00,Wunderground v.1.15,2013-12-30 06:45:00,
2013-12-30 00:48:00,34.9,29.0,30.16,WNW,302,8.0,16.0,79,0.00,,,0.00,Wunderground v.1.15,2013-12-30 06:48:00,
2013-12-30 00:52:00,34.9,29.0,30.16,North,357,9.0,9.0,79,0.00,,,0.00,Wunderground v.1.15,2013-12-30 06:52:00,
2013-12-30 00:54:00,34.9,28.7,30.16,North,359,9.0,18.0,78,0.00,,,0.00,Wunderground v.1.15,2013-12-30 06:54:00,
2013-12-30 00:55:00,34.7,28.5,30.16,NNW,329,9.0,18.0,78,0.00,,,0.00,Wunderground v.1.15,2013-12-30 06:55:00,
2013-12-30 00:56:00,34.7,28.5,30.16,North,353,9.0,18.0,78,0.00,,,0.00,Wunderground v.1.15,2013-12-30 06:56:00,
2013-12-30 00:59:00,34.7,28.5,30.16,NW,320,10.0,18.0,78,0.00,,,0.00,Wunderground v.1.15,2013-12-30 06:59:00,
2013-12-30 01:03:00,34.6,28.4,30.16,North,0,10.0,13.0,78,0.00,,,0.00,Wunderground v.1.15,2013-12-30 07:03:00,
2013-12-30 01:06:00,34.6,28.4,30.16,North,0,9.0,13.0,78,0.00,,,0.00,Wunderground v.1.15,2013-12-30 07:06:00,
2013-12-30 01:07:00,34.6,28.4,30.16,North,357,9.0,13.0,78,0.00,,,0.00,Wunderground v.1.15,2013-12-30 07:07:00,
2013-12-30 01:09:00,34.6,28.4,30.16,WNW,298,9.0,13.0,78,0.00,,,0.00,Wunderground v.1.15,2013-12-30 07:09:00,
2013-12-30 01:12:00,34.6,28.4,30.16,NW,320,9.0,9.0,78,0.00,,,0.00,Wunderground v.1.15,2013-12-30 07:12:00,
2013-12-30 01:14:00,34.6,28.4,30.16,NNE,20,9.0,13.0,78,0.00,,,0.00,Wunderground v.1.15,2013-12-30 07:14:00,
2013-12-30 01:15:00,34.6,28.4,30.16,NW,323,10.0,14.0,78,0.00,,,0.00,Wunderground v.1.15,2013-12-30 07:15:00,
2013-12-30 01:16:00,34.6,28.4,30.16,NW,316,10.0,14.0,78,0.00,,,0.00,Wunderground v.1.15,2013-12-30 07:16:00,
2013-12-30 01:22:00,34.6,28.4,30.14,North,6,11.0,19.0,78,0.00,,,0.00,Wunderground v.1.15,2013-12-30 07:22:00,
2013-12-30 01:23:00,34.4,28.2,30.14,North,357,12.0,19.0,78,0.00,,,0.00,Wunderground v.1.15,2013-12-30 07:23:00,
2013-12-30 01:24:00,34.6,28.4,30.14,NW,311,12.0,19.0,78,0.00,,,0.00,Wunderground v.1.15,2013-12-30 07:24:00,
2013-12-30 01:25:00,34.6,28.4,30.14,NNE,20,12.0,19.0,78,0.00,,,0.00,Wunderground v.1.15,2013-12-30 07:25:00,
2013-12-30 01:26:00,34.6,28.4,30.14,North,354,12.0,19.0,78,0.00,,,0.00,Wunderground v.1.15,2013-12-30 07:26:00,
2013-12-30 01:28:00,34.4,28.2,30.14,North,0,12.0,20.0,78,0.00,,,0.00,Wunderground v.1.15,2013-12-30 07:28:00,
2013-12-30 01:29:00,34.4,28.2,30.14,NW,304,12.0,20.0,78,0.00,,,0.00,Wunderground v.1.15,2013-12-30 07:29:00,
2013-12-30 01:32:00,34.6,28.4,30.14,North,359,12.0,13.0,78,0.00,,,0.00,Wunderground v.1.15,2013-12-30 07:32:00,
2013-12-30 01:33:00,34.6,28.4,30.14,NNW,335,11.0,13.0,78,0.00,,,0.00,Wunderground v.1.15,2013-12-30 07:33:00,
2013-12-30 01:34:00,34.6,28.4,30.14,North,0,11.0,19.0,78,0.00,,,0.00,Wunderground v.1.15,2013-12-30 07:34:00,
2013-12-30 01:35:00,34.6,28.4,30.14,NE,35,12.0,19.0,78,0.00,,,0.00,Wunderground v.1.15,2013-12-30 07:35:00,
2013-12-30 01:37:00,34.6,28.4,30.14,NNW,333,11.0,19.0,78,0.00,,,0.00,Wunderground v.1.15,2013-12-30 07:37:00,
2013-12-30 01:42:00,34.6,28.4,30.14,NNW,339,10.0,10.0,78,0.00,,,0.00,Wunderground v.1.15,2013-12-30 07:42:00,
2013-12-30 01:43:00,34.6,28.4,30.14,North,359,10.0,12.0,78,0.00,,,0.00,Wunderground v.1.15,2013-12-30 07:43:00,
2013-12-30 01:44:00,34.6,28.4,30.14,North,0,10.0,13.0,78,0.00,,,0.00,Wunderground v.1.15,2013-12-30 07:44:00,
2013-12-30 01:45:00,34.6,28.4,30.14,North,357,9.0,13.0,78,0.00,,,0.00,Wunderground v.1.15,2013-12-30 07:45:00,
2013-12-30 01:47:00,34.6,28.4,30.14,NW,318,10.0,14.0,78,0.00,,,0.00,Wunderground v.1.15,2013-12-30 07:47:00,
2013-12-30 01:48:00,34.6,28.4,30.15,NNW,333,10.0,14.0,78,0.00,,,0.00,Wunderground v.1.15,2013-12-30 07:48:00,
2013-12-30 01:49:00,34.6,28.1,30.15,North,6,10.0,14.0,77,0.00,,,0.00,Wunderground v.1.15,2013-12-30 07:49:00,
2013-12-30 01:52:00,34.6,28.4,30.15,NNW,347,10.0,10.0,78,0.00,,,0.00,Wunderground v.1.15,2013-12-30 07:52:00,
2013-12-30 01:53:00,34.6,28.4,30.15,NNW,347,10.0,10.0,78,0.00,,,0.00,Wunderground v.1.15,2013-12-30 07:53:00,
2013-12-30 01:56:00,34.6,28.1,30.15,NNE,20,10.0,11.0,77,0.00,,,0.00,Wunderground v.1.15,2013-12-30 07:56:00,
2013-12-30 01:57:00,34.6,28.1,30.15,North,3,9.0,11.0,77,0.00,,,0.00,Wunderground v.1.15,2013-12-30 07:57:00,
2013-12-30 01:58:00,34.6,28.1,30.15,NNE,16,9.0,11.0,77,0.00,,,0.00,Wunderground v.1.15,2013-12-30 07:58:00,
2013-12-30 01:59:00,34.6,28.1,30.15,NNW,339,8.0,11.0,77,0.00,,,0.00,Wunderground v.1.15,2013-12-30 07:59:00,
2013-12-30 02:03:00,34.7,28.2,30.15,North,4,8.0,8.0,77,0.00,,,0.00,Wunderground v.1.15,2013-12-30 08:03:00,
2013-12-30 02:06:00,34.7,28.2,30.15,North,356,7.0,12.0,77,0.00,,,0.00,Wunderground v.1.15,2013-12-30 08:06:00,
2013-12-30 02:07:00,34.7,28.2,30.15,NNE,14,8.0,12.0,77,0.00,,,0.00,Wunderground v.1.15,2013-12-30 08:07:00,
2013-12-30 02:09:00,34.7,28.2,30.15,North,357,7.0,12.0,77,0.00,,,0.00,Wunderground v.1.15,2013-12-30 08:09:00,
2013-12-30 02:13:00,34.7,28.2,30.15,NW,322,7.0,13.0,77,0.00,,,0.00,Wunderground v.1.15,2013-12-30 08:13:00,
2013-12-30 02:14:00,34.7,28.2,30.15,North,0,7.0,13.0,77,0.00,,,0.00,Wunderground v.1.15,2013-12-30 08:14:00,
2013-12-30 02:16:00,34.7,28.2,30.15,North,354,7.0,19.0,77,0.00,,,0.00,Wunderground v.1.15,2013-12-30 08:16:00,
2013-12-30 02:17:00,34.6,28.1,30.15,NNW,347,7.0,19.0,77,0.00,,,0.00,Wunderground v.1.15,2013-12-30 08:17:00,
2013-12-30 02:19:00,34.6,27.8,30.15,NNW,332,7.0,19.0,76,0.00,,,0.00,Wunderground v.1.15,2013-12-30 08:19:00,
2013-12-30 02:22:00,34.4,27.6,30.15,NNE,16,9.0,12.0,76,0.00,,,0.00,Wunderground v.1.15,2013-12-30 08:22:00,
2013-12-30 02:23:00,34.4,27.6,30.15,NNW,343,9.0,12.0,76,0.00,,,0.00,Wunderground v.1.15,2013-12-30 08:23:00,
2013-12-30 02:24:00,34.4,27.6,30.15,ENE,62,9.0,12.0,76,0.00,,,0.00,Wunderground v.1.15,2013-12-30 08:24:00,
2013-12-30 02:26:00,34.4,27.6,30.15,NNE,27,10.0,12.0,76,0.00,,,0.00,Wunderground v.1.15,2013-12-30 08:26:00,
2013-12-30 02:28:00,34.4,27.6,30.15,North,0,10.0,13.0,76,0.00,,,0.00,Wunderground v.1.15,2013-12-30 08:28:00,
2013-12-30 02:32:00,34.3,27.5,30.15,North,0,10.0,10.0,76,0.00,,,0.00,Wunderground v.1.15,2013-12-30 08:32:00,
2013-12-30 02:33:00,34.3,27.5,30.15,NNW,328,10.0,10.0,76,0.00,,,0.00,Wunderground v.1.15,2013-12-30 08:33:00,
2013-12-30 02:34:00,34.4,27.6,30.15,North,356,10.0,11.0,76,0.00,,,0.00,Wunderground v.1.15,2013-12-30 08:34:00,
2013-12-30 02:36:00,34.4,27.6,30.15,NNE,31,10.0,11.0,76,0.00,,,0.00,Wunderground v.1.15,2013-12-30 08:36:00,
2013-12-30 02:37:00,34.4,27.6,30.15,North,359,10.0,12.0,76,0.00,,,0.00,Wunderground v.1.15,2013-12-30 08:37:00,
2013-12-30 02:38:00,34.4,27.6,30.15,NW,305,10.0,12.0,76,0.00,,,0.00,Wunderground v.1.15,2013-12-30 08:38:00,
2013-12-30 02:39:00,34.4,27.6,30.15,North,1,9.0,12.0,76,0.00,,,0.00,Wunderground v.1.15,2013-12-30 08:39:00,
2013-12-30 02:43:00,34.4,27.6,30.15,NNE,30,9.0,11.0,76,0.00,,,0.00,Wunderground v.1.15,2013-12-30 08:43:00,
2013-12-30 02:44:00,34.4,27.6,30.15,North,352,9.0,11.0,76,0.00,,,0.00,Wunderground v.1.15,2013-12-30 08:44:00,
2013-12-30 02:46:00,34.4,27.6,30.15,NNW,330,9.0,16.0,76,0.00,,,0.00,Wunderground v.1.15,2013-12-30 08:46:00,
2013-12-30 02:47:00,34.4,27.6,30.15,North,359,9.0,16.0,76,0.00,,,0.00,Wunderground v.1.15,2013-12-30 08:47:00,
2013-12-30 02:48:00,34.4,27.6,30.15,WNW,302,8.0,16.0,76,0.00,,,0.00,Wunderground v.1.15,2013-12-30 08:48:00,
2013-12-30 02:49:00,34.4,27.6,30.15,North,0,8.0,16.0,76,0.00,,,0.00,Wunderground v.1.15,2013-12-30 08:49:00,
2013-12-30 02:54:00,34.4,27.6,30.15,North,0,8.0,9.0,76,0.00,,,0.00,Wunderground v.1.15,2013-12-30 08:54:00,
2013-12-30 02:55:00,34.4,27.6,30.15,North,356,8.0,9.0,76,0.00,,,0.00,Wunderground v.1.15,2013-12-30 08:55:00,
2013-12-30 02:58:00,34.4,27.6,30.15,North,11,8.0,11.0,76,0.00,,,0.00,Wunderground v.1.15,2013-12-30 08:58:00,
2013-12-30 02:59:00,34.4,27.6,30.15,NNW,329,8.0,11.0,76,0.00,,,0.00,Wunderground v.1.15,2013-12-30 08:59:00,
2013-12-30 03:02:00,34.4,27.6,30.15,NNW,337,8.0,8.0,76,0.00,,,0.00,Wunderground v.1.15,2013-12-30 09:02:00,
2013-12-30 03:04:00,34.4,27.6,30.15,NNE,14,8.0,11.0,76,0.00,,,0.00,Wunderground v.1.15,2013-12-30 09:04:00,
2013-12-30 03:05:00,34.6,27.8,30.15,North,0,8.0,11.0,76,0.00,,,0.00,Wunderground v.1.15,2013-12-30 09:05:00,
2013-12-30 03:06:00,34.6,27.8,30.15,North,10,9.0,11.0,76,0.00,,,0.00,Wunderground v.1.15,2013-12-30 09:06:00,
2013-12-30 03:12:00,34.6,27.8,30.15,North,0,8.0,11.0,76,0.00,,,0.00,Wunderground v.1.15,2013-12-30 09:12:00,
2013-12-30 03:13:00,34.6,27.8,30.15,NNW,335,9.0,11.0,76,0.00,,,0.00,Wunderground v.1.15,2013-12-30 09:13:00,
2013-12-30 03:15:00,34.6,27.5,30.15,NNE,28,9.0,14.0,75,0.00,,,0.00,Wunderground v.1.15,2013-12-30 09:15:00,
2013-12-30 03:18:00,34.6,27.5,30.14,NNW,336,9.0,18.0,75,0.00,,,0.00,Wunderground v.1.15,2013-12-30 09:18:00,
2013-12-30 03:19:00,34.6,27.5,30.14,North,0,10.0,18.0,75,0.00,,,0.00,Wunderground v.1.15,2013-12-30 09:19:00,
2013-12-30 03:23:00,34.6,27.5,30.14,NNW,329,10.0,10.0,75,0.00,,,0.00,Wunderground v.1.15,2013-12-30 09:23:00,
2013-12-30 03:25:00,34.6,27.5,30.14,North,0,10.0,13.0,75,0.00,,,0.00,Wunderground v.1.15,2013-12-30 09:25:00,
2013-12-30 03:26:00,34.6,27.5,30.14,NW,326,10.0,13.0,75,0.00,,,0.00,Wunderground v.1.15,2013-12-30 09:26:00,
2013-12-30 03:27:00,34.6,27.5,30.14,North,356,10.0,13.0,75,0.00,,,0.00,Wunderground v.1.15,2013-12-30 09:27:00,
2013-12-30 03:28:00,34.6,27.5,30.14,NNW,346,9.0,13.0,75,0.00,,,0.00,Wunderground v.1.15,2013-12-30 09:28:00,
2013-12-30 03:29:00,34.6,27.5,30.14,NNW,340,9.0,13.0,75,0.00,,,0.00,Wunderground v.1.15,2013-12-30 09:29:00,
2013-12-30 03:32:00,34.6,27.5,30.14,North,356,9.0,9.0,75,0.00,,,0.00,Wunderground v.1.15,2013-12-30 09:32:00,
2013-12-30 03:33:00,34.6,27.5,30.14,North,359,8.0,14.0,75,0.00,,,0.00,Wunderground v.1.15,2013-12-30 09:33:00,
2013-12-30 03:34:00,34.6,27.5,30.14,NNW,332,8.0,14.0,75,0.00,,,0.00,Wunderground v.1.15,2013-12-30 09:34:00,
2013-12-30 03:35:00,34.6,27.5,30.14,NW,313,8.0,14.0,75,0.00,,,0.00,Wunderground v.1.15,2013-12-30 09:35:00,
2013-12-30 03:37:00,34.6,27.5,30.14,NW,315,8.0,14.0,75,0.00,,,0.00,Wunderground v.1.15,2013-12-30 09:37:00,
2013-12-30 03:38:00,34.6,27.5,30.14,North,4,8.0,14.0,75,0.00,,,0.00,Wunderground v.1.15,2013-12-30 09:38:00,
2013-12-30 03:42:00,34.6,27.5,30.14,NNE,14,9.0,9.0,75,0.00,,,0.00,Wunderground v.1.15,2013-12-30 09:42:00,
2013-12-30 03:43:00,34.6,27.5,30.14,NNW,340,9.0,9.0,75,0.00,,,0.00,Wunderground v.1.15,2013-12-30 09:43:00,
2013-12-30 03:45:00,34.6,27.5,30.14,North,0,9.0,14.0,75,0.00,,,0.00,Wunderground v.1.15,2013-12-30 09:45:00,
2013-12-30 03:47:00,34.6,27.5,30.14,NW,323,9.0,14.0,75,0.00,,,0.00,Wunderground v.1.15,2013-12-30 09:47:00,
2013-12-30 03:49:00,34.6,27.5,30.14,WNW,296,9.0,14.0,75,0.00,,,0.00,Wunderground v.1.15,2013-12-30 09:49:00,
2013-12-30 03:54:00,34.6,27.5,30.14,NNW,335,8.0,11.0,75,0.00,,,0.00,Wunderground v.1.15,2013-12-30 09:54:00,
2013-12-30 03:55:00,34.6,27.5,30.14,NW,305,8.0,11.0,75,0.00,,,0.00,Wunderground v.1.15,2013-12-30 09:55:00,
2013-12-30 03:58:00,34.6,27.5,30.14,NNW,335,9.0,12.0,75,0.00,,,0.00,Wunderground v.1.15,2013-12-30 09:58:00,
2013-12-30 03:59:00,34.6,27.5,30.14,NW,323,8.0,12.0,75,0.00,,,0.00,Wunderground v.1.15,2013-12-30 09:59:00,
2013-12-30 04:03:00,34.4,27.3,30.14,North,356,8.0,9.0,75,0.00,,,0.00,Wunderground v.1.15,2013-12-30 10:03:00,
2013-12-30 04:05:00,34.4,27.3,30.14,NNW,330,8.0,12.0,75,0.00,,,0.00,Wunderground v.1.15,2013-12-30 10:05:00,
2013-12-30 04:06:00,34.4,27.3,30.14,NNW,330,8.0,12.0,75,0.00,,,0.00,Wunderground v.1.15,2013-12-30 10:06:00,
2013-12-30 04:07:00,34.4,27.0,30.14,North,352,8.0,12.0,74,0.00,,,0.00,Wunderground v.1.15,2013-12-30 10:07:00,
2013-12-30 04:09:00,34.4,27.0,30.14,NNW,328,8.0,12.0,74,0.00,,,0.00,Wunderground v.1.15,2013-12-30 10:09:00,
2013-12-30 04:12:00,34.4,27.0,30.14,North,359,8.0,11.0,74,0.00,,,0.00,Wunderground v.1.15,2013-12-30 10:12:00,
2013-12-30 04:13:00,34.4,27.0,30.14,North,356,8.0,11.0,74,0.00,,,0.00,Wunderground v.1.15,2013-12-30 10:13:00,
2013-12-30 04:14:00,34.4,27.0,30.14,NW,325,8.0,11.0,74,0.00,,,0.00,Wunderground v.1.15,2013-12-30 10:14:00,
2013-12-30 04:15:00,34.4,27.0,30.14,North,356,8.0,11.0,74,0.00,,,0.00,Wunderground v.1.15,2013-12-30 10:15:00,
2013-12-30 04:16:00,34.4,27.0,30.14,NW,311,8.0,11.0,74,0.00,,,0.00,Wunderground v.1.15,2013-12-30 10:16:00,
2013-12-30 04:18:00,34.4,27.0,30.15,NNE,14,8.0,11.0,74,0.00,,,0.00,Wunderground v.1.15,2013-12-30 10:18:00,
2013-12-30 04:23:00,34.4,27.0,30.15,North,354,7.0,13.0,74,0.00,,,0.00,Wunderground v.1.15,2013-12-30 10:23:00,
2013-12-30 04:24:00,34.4,26.6,30.15,NNW,332,7.0,13.0,73,0.00,,,0.00,Wunderground v.1.15,2013-12-30 10:24:00,
2013-12-30 04:25:00,34.4,26.6,30.15,NW,325,7.0,13.0,73,0.00,,,0.00,Wunderground v.1.15,2013-12-30 10:25:00,
2013-12-30 04:29:00,34.4,26.6,30.15,NW,320,8.0,13.0,73,0.00,,,0.00,Wunderground v.1.15,2013-12-30 10:29:00,
2013-12-30 04:32:00,34.4,26.3,30.15,North,0,9.0,11.0,72,0.00,,,0.00,Wunderground v.1.15,2013-12-30 10:32:00,
2013-12-30 04:34:00,34.4,26.3,30.15,North,0,9.0,11.0,72,0.00,,,0.00,Wunderground v.1.15,2013-12-30 10:34:00,
2013-12-30 04:35:00,34.4,26.3,30.15,NW,320,9.0,13.0,72,0.00,,,0.00,Wunderground v.1.15,2013-12-30 10:35:00,
2013-12-30 04:36:00,34.4,26.3,30.15,NNW,329,9.0,13.0,72,0.00,,,0.00,Wunderground v.1.15,2013-12-30 10:36:00,
2013-12-30 04:38:00,34.4,26.3,30.15,NW,312,10.0,13.0,72,0.00,,,0.00,Wunderground v.1.15,2013-12-30 10:38:00,
2013-12-30 04:39:00,34.4,26.3,30.15,North,354,9.0,13.0,72,0.00,,,0.00,Wunderground v.1.15,2013-12-30 10:39:00,
2013-12-30 04:42:00,34.4,26.3,30.15,North,357,9.0,11.0,72,0.00,,,0.00,Wunderground v.1.15,2013-12-30 10:42:00,
2013-12-30 04:43:00,34.4,26.3,30.15,NNW,346,9.0,11.0,72,0.00,,,0.00,Wunderground v.1.15,2013-12-30 10:43:00,
2013-12-30 04:47:00,34.4,26.3,30.15,NW,318,9.0,17.0,72,0.00,,,0.00,Wunderground v.1.15,2013-12-30 10:47:00,
2013-12-30 04:48:00,34.4,26.3,30.14,NW,320,10.0,17.0,72,0.00,,,0.00,Wunderground v.1.15,2013-12-30 10:48:00,
2013-12-30 04:49:00,34.4,26.3,30.14,North,0,10.0,17.0,72,0.00,,,0.00,Wunderground v.1.15,2013-12-30 10:49:00,
2013-12-30 04:52:00,34.4,26.3,30.14,NNW,340,9.0,10.0,72,0.00,,,0.00,Wunderground v.1.15,2013-12-30 10:52:00,
2013-12-30 04:53:00,34.4,26.0,30.14,NNE,31,9.0,10.0,71,0.00,,,0.00,Wunderground v.1.15,2013-12-30 10:53:00,
2013-12-30 04:56:00,34.4,26.0,30.14,NNW,328,9.0,12.0,71,0.00,,,0.00,Wunderground v.1.15,2013-12-30 10:56:00,
2013-12-30 04:57:00,34.4,26.0,30.14,NNW,342,9.0,12.0,71,0.00,,,0.00,Wunderground v.1.15,2013-12-30 10:57:00,
2013-12-30 05:02:00,34.4,26.0,30.14,NE,40,9.0,9.0,71,0.00,,,0.00,Wunderground v.1.15,2013-12-30 11:02:00,
2013-12-30 05:03:00,34.4,26.0,30.14,North,0,8.0,9.0,71,0.00,,,0.00,Wunderground v.1.15,2013-12-30 11:03:00,
2013-12-30 05:04:00,34.4,26.0,30.14,North,0,8.0,13.0,71,0.00,,,0.00,Wunderground v.1.15,2013-12-30 11:04:00,
2013-12-30 05:05:00,34.4,26.0,30.14,NNW,342,8.0,13.0,71,0.00,,,0.00,Wunderground v.1.15,2013-12-30 11:05:00,
2013-12-30 05:06:00,34.4,26.0,30.14,NNW,337,8.0,13.0,71,0.00,,,0.00,Wunderground v.1.15,2013-12-30 11:06:00,
2013-12-30 05:08:00,34.4,26.0,30.14,North,0,8.0,13.0,71,0.00,,,0.00,Wunderground v.1.15,2013-12-30 11:08:00,
2013-12-30 05:12:00,34.4,26.0,30.14,North,0,7.0,7.0,71,0.00,,,0.00,Wunderground v.1.15,2013-12-30 11:12:00,
2013-12-30 05:13:00,34.6,26.2,30.14,NNW,335,7.0,7.0,71,0.00,,,0.00,Wunderground v.1.15,2013-12-30 11:13:00,
2013-12-30 05:15:00,34.6,26.2,30.14,North,359,7.0,7.0,71,0.00,,,0.00,Wunderground v.1.15,2013-12-30 11:15:00,
2013-12-30 05:17:00,34.6,26.2,30.14,NNE,13,7.0,10.0,71,0.00,,,0.00,Wunderground v.1.15,2013-12-30 11:17:00,
2013-12-30 05:19:00,34.6,26.2,30.15,NNE,20,6.0,10.0,71,0.00,,,0.00,Wunderground v.1.15,2013-12-30 11:19:00,
2013-12-30 05:22:00,34.6,26.2,30.15,NNW,337,6.0,6.0,71,0.00,,,0.00,Wunderground v.1.15,2013-12-30 11:22:00,
2013-12-30 05:23:00,34.6,26.2,30.15,North,6,6.0,10.0,71,0.00,,,0.00,Wunderground v.1.15,2013-12-30 11:23:00,
2013-12-30 05:24:00,34.6,26.2,30.15,NNE,13,6.0,10.0,71,0.00,,,0.00,Wunderground v.1.15,2013-12-30 11:24:00,
2013-12-30 05:27:00,34.7,26.3,30.15,NNW,343,5.0,10.0,71,0.00,,,0.00,Wunderground v.1.15,2013-12-30 11:27:00,
2013-12-30 05:28:00,34.7,25.9,30.15,NNW,330,5.0,13.0,70,0.00,,,0.00,Wunderground v.1.15,2013-12-30 11:28:00,
2013-12-30 05:29:00,34.7,25.9,30.15,NNW,342,6.0,13.0,70,0.00,,,0.00,Wunderground v.1.15,2013-12-30 11:29:00,
2013-12-30 05:33:00,34.7,25.9,30.16,North,0,6.0,10.0,70,0.00,,,0.00,Wunderground v.1.15,2013-12-30 11:33:00,
2013-12-30 05:34:00,34.7,25.9,30.16,NNW,329,6.0,10.0,70,0.00,,,0.00,Wunderground v.1.15,2013-12-30 11:34:00,
2013-12-30 05:36:00,34.7,25.9,30.16,North,353,6.0,10.0,70,0.00,,,0.00,Wunderground v.1.15,2013-12-30 11:36:00,
2013-12-30 05:38:00,34.7,25.9,30.16,North,6,6.0,10.0,70,0.00,,,0.00,Wunderground v.1.15,2013-12-30 11:38:00,
2013-12-30 05:42:00,34.7,25.9,30.16,North,0,5.0,5.0,70,0.00,,,0.00,Wunderground v.1.15,2013-12-30 11:42:00,
2013-12-30 05:44:00,34.7,25.9,30.16,North,0,5.0,5.0,70,0.00,,,0.00,Wunderground v.1.15,2013-12-30 11:44:00,
2013-12-30 05:46:00,34.7,25.9,30.16,North,0,4.0,5.0,70,0.00,,,0.00,Wunderground v.1.15,2013-12-30 11:46:00,
2013-12-30 05:47:00,34.7,25.9,30.16,North,6,4.0,5.0,70,0.00,,,0.00,Wunderground v.1.15,2013-12-30 11:47:00,
2013-12-30 05:48:00,34.7,25.9,30.16,NNE,17,4.0,5.0,70,0.00,,,0.00,Wunderground v.1.15,2013-12-30 11:48:00,
2013-12-30 05:53:00,34.7,25.9,30.16,NNE,20,4.0,9.0,70,0.00,,,0.00,Wunderground v.1.15,2013-12-30 11:53:00,
2013-12-30 05:54:00,34.7,25.9,30.16,NNE,14,4.0,9.0,70,0.00,,,0.00,Wunderground v.1.15,2013-12-30 11:54:00,
2013-12-30 05:55:00,34.7,25.9,30.16,North,0,4.0,9.0,70,0.00,,,0.00,Wunderground v.1.15,2013-12-30 11:55:00,
2013-12-30 05:56:00,34.7,25.9,30.16,North,359,5.0,9.0,70,0.00,,,0.00,Wunderground v.1.15,2013-12-30 11:56:00,
2013-12-30 05:57:00,34.7,25.9,30.16,NW,312,5.0,9.0,70,0.00,,,0.00,Wunderground v.1.15,2013-12-30 11:57:00,
2013-12-30 06:02:00,34.9,26.1,30.16,NNW,340,5.0,7.0,70,0.00,,,0.00,Wunderground v.1.15,2013-12-30 12:02:00,
2013-12-30 06:03:00,34.9,25.8,30.17,NNW,335,5.0,7.0,69,0.00,,,0.00,Wunderground v.1.15,2013-12-30 12:03:00,
2013-12-30 06:04:00,34.9,25.8,30.17,North,353,5.0,7.0,69,0.00,,,0.00,Wunderground v.1.15,2013-12-30 12:04:00,
2013-12-30 06:06:00,34.9,26.1,30.17,North,0,5.0,7.0,70,0.00,,,0.00,Wunderground v.1.15,2013-12-30 12:06:00,
2013-12-30 06:07:00,34.9,26.1,30.17,NNW,329,5.0,7.0,70,0.00,,,0.00,Wunderground v.1.15,2013-12-30 12:07:00,
2013-12-30 06:09:00,34.9,26.1,30.17,North,353,5.0,7.0,70,0.00,,,0.00,Wunderground v.1.15,2013-12-30 12:09:00,
2013-12-30 06:12:00,34.9,25.8,30.17,North,359,5.0,8.0,69,0.00,,,0.00,Wunderground v.1.15,2013-12-30 12:12:00,
2013-12-30 06:13:00,34.9,25.8,30.17,NNW,330,5.0,8.0,69,0.00,,,0.00,Wunderground v.1.15,2013-12-30 12:13:00,
2013-12-30 06:14:00,34.9,25.8,30.17,NNW,347,5.0,8.0,69,0.00,,,0.00,Wunderground v.1.15,2013-12-30 12:14:00,
2013-12-30 06:18:00,34.9,25.8,30.19,NNW,329,5.0,8.0,69,0.00,,,0.00,Wunderground v.1.15,2013-12-30 12:18:00,
2013-12-30 06:19:00,34.9,25.8,30.19,NNW,335,5.0,8.0,69,0.00,,,0.00,Wunderground v.1.15,2013-12-30 12:19:00,
2013-12-30 06:24:00,34.9,25.8,30.19,North,357,4.0,7.0,69,0.00,,,0.00,Wunderground v.1.15,2013-12-30 12:24:00,
2013-12-30 06:25:00,34.9,25.8,30.19,NNE,14,4.0,7.0,69,0.00,,,0.00,Wunderground v.1.15,2013-12-30 12:25:00,
2013-12-30 06:26:00,34.9,25.8,30.19,North,0,4.0,7.0,69,0.00,,,0.00,Wunderground v.1.15,2013-12-30 12:26:00,
2013-12-30 06:32:00,35.0,25.9,30.19,North,0,3.0,3.0,69,0.00,,,0.00,Wunderground v.1.15,2013-12-30 12:32:00,
2013-12-30 06:34:00,35.0,25.9,30.19,North,0,2.0,3.0,69,0.00,,,0.00,Wunderground v.1.15,2013-12-30 12:34:00,
2013-12-30 06:35:00,35.0,25.9,30.19,North,0,2.0,3.0,69,0.00,,,0.00,Wunderground v.1.15,2013-12-30 12:35:00,
2013-12-30 06:38:00,35.0,25.9,30.19,North,0,2.0,3.0,69,0.00,,,0.00,Wunderground v.1.15,2013-12-30 12:38:00,
2013-12-30 06:42:00,35.0,25.9,30.19,North,3,2.0,6.0,69,0.00,,,0.00,Wunderground v.1.15,2013-12-30 12:42:00,
2013-12-30 06:44:00,35.0,25.9,30.19,NNE,17,3.0,6.0,69,0.00,,,0.00,Wunderground v.1.15,2013-12-30 12:44:00,
2013-12-30 06:46:00,35.0,25.9,30.19,NNW,328,3.0,6.0,69,0.00,,,0.00,Wunderground v.1.15,2013-12-30 12:46:00,
2013-12-30 06:48:00,35.0,25.9,30.20,NNW,328,4.0,6.0,69,0.00,,,0.00,Wunderground v.1.15,2013-12-30 12:48:00,
2013-12-30 06:49:00,35.0,25.9,30.20,NNW,339,4.0,6.0,69,0.00,,,0.00,Wunderground v.1.15,2013-12-30 12:49:00,
2013-12-30 06:52:00,35.2,26.0,30.20,North,0,3.0,3.0,69,0.00,,,0.00,Wunderground v.1.15,2013-12-30 12:52:00,
2013-12-30 06:53:00,35.2,26.0,30.20,NNW,339,3.0,5.0,69,0.00,,,0.00,Wunderground v.1.15,2013-12-30 12:53:00,
2013-12-30 06:54:00,35.2,26.0,30.20,NW,308,3.0,5.0,69,0.00,,,0.00,Wunderground v.1.15,2013-12-30 12:54:00,
2013-12-30 06:55:00,35.2,26.0,30.20,NNW,332,3.0,6.0,69,0.00,,,0.00,Wunderground v.1.15,2013-12-30 12:55:00,
2013-12-30 06:56:00,35.2,26.0,30.20,NNW,329,3.0,6.0,69,0.00,,,0.00,Wunderground v.1.15,2013-12-30 12:56:00,
2013-12-30 06:59:00,35.2,26.0,30.20,NNW,336,3.0,8.0,69,0.00,,,0.00,Wunderground v.1.15,2013-12-30 12:59:00,
2013-12-30 07:02:00,35.2,26.0,30.20,NNW,347,4.0,5.0,69,0.00,,,0.00,Wunderground v.1.15,2013-12-30 13:02:00,
2013-12-30 07:03:00,35.2,26.0,30.21,North,353,4.0,5.0,69,0.00,,,0.00,Wunderground v.1.15,2013-12-30 13:03:00,
2013-12-30 07:04:00,35.2,26.0,30.21,North,353,4.0,5.0,69,0.00,,,0.00,Wunderground v.1.15,2013-12-30 13:04:00,
2013-12-30 07:05:00,35.2,26.0,30.21,North,352,4.0,5.0,69,0.00,,,0.00,Wunderground v.1.15,2013-12-30 13:05:00,
2013-12-30 07:06:00,35.2,26.0,30.21,North,352,4.0,5.0,69,0.00,,,0.00,Wunderground v.1.15,2013-12-30 13:06:00,
2013-12-30 07:07:00,35.2,26.0,30.21,North,0,4.0,5.0,69,0.00,,,0.00,Wunderground v.1.15,2013-12-30 13:07:00,
2013-12-30 07:12:00,35.3,26.1,30.21,NNW,333,3.0,5.0,69,0.00,,,0.00,Wunderground v.1.15,2013-12-30 13:12:00,
2013-12-30 07:13:00,35.3,26.1,30.21,NW,325,3.0,5.0,69,0.00,,,0.00,Wunderground v.1.15,2013-12-30 13:13:00,
2013-12-30 07:14:00,35.3,26.1,30.21,NW,325,3.0,5.0,69,0.00,,,0.00,Wunderground v.1.15,2013-12-30 13:14:00,
2013-12-30 07:19:00,35.3,26.1,30.22,North,356,4.0,5.0,69,0.00,,,0.00,Wunderground v.1.15,2013-12-30 13:19:00,
2013-12-30 07:22:00,35.2,25.7,30.22,NW,319,5.0,7.0,68,0.00,,,0.00,Wunderground v.1.15,2013-12-30 13:22:00,
2013-12-30 07:26:00,35.3,26.1,30.22,NW,325,5.0,7.0,69,0.00,,,0.00,Wunderground v.1.15,2013-12-30 13:26:00,
2013-12-30 07:27:00,35.3,25.8,30.22,WNW,301,5.0,10.0,68,0.00,,,0.00,Wunderground v.1.15,2013-12-30 13:27:00,
2013-12-30 07:28:00,35.2,25.7,30.22,NNE,16,5.0,10.0,68,0.00,,,0.00,Wunderground v.1.15,2013-12-30 13:28:00,
2013-12-30 07:32:00,35.2,25.7,30.22,North,359,6.0,6.0,68,0.00,,,0.00,Wunderground v.1.15,2013-12-30 13:32:00,
2013-12-30 07:33:00,35.2,25.7,30.21,NW,308,6.0,6.0,68,0.00,,,0.00,Wunderground v.1.15,2013-12-30 13:33:00,
2013-12-30 07:37:00,35.2,25.7,30.21,North,0,7.0,12.0,68,0.00,,,0.00,Wunderground v.1.15,2013-12-30 13:37:00,
2013-12-30 07:42:00,35.0,25.5,30.21,NW,326,6.0,6.0,68,0.00,,,0.00,Wunderground v.1.15,2013-12-30 13:42:00,
2013-12-30 07:43:00,35.0,25.5,30.21,North,354,6.0,6.0,68,0.00,,,0.00,Wunderground v.1.15,2013-12-30 13:43:00,
2013-12-30 07:45:00,35.0,25.5,30.21,North,357,7.0,10.0,68,0.00,,,0.00,Wunderground v.1.15,2013-12-30 13:45:00,
2013-12-30 07:46:00,35.0,25.5,30.21,North,353,6.0,10.0,68,0.00,,,0.00,Wunderground v.1.15,2013-12-30 13:46:00,
2013-12-30 07:49:00,35.0,25.1,30.22,North,353,6.0,10.0,67,0.00,,,0.00,Wunderground v.1.15,2013-12-30 13:49:00,
2013-12-30 07:54:00,35.0,25.1,30.22,North,0,7.0,10.0,67,0.00,,,0.00,Wunderground v.1.15,2013-12-30 13:54:00,
2013-12-30 07:55:00,35.0,25.1,30.22,North,356,6.0,10.0,67,0.00,,,0.00,Wunderground v.1.15,2013-12-30 13:55:00,
2013-12-30 07:57:00,35.0,25.1,30.22,NNW,328,6.0,10.0,67,0.00,,,0.00,Wunderground v.1.15,2013-12-30 13:57:00,
2013-12-30 07:58:00,35.0,25.1,30.22,NW,318,6.0,10.0,67,0.00,,,0.00,Wunderground v.1.15,2013-12-30 13:58:00,
2013-12-30 08:02:00,35.0,25.1,30.22,NNW,332,5.0,5.0,67,0.00,,,0.00,Wunderground v.1.15,2013-12-30 14:02:00,
2013-12-30 08:03:00,35.0,25.1,30.23,NW,326,5.0,5.0,67,0.00,,,0.00,Wunderground v.1.15,2013-12-30 14:03:00,
2013-12-30 08:08:00,34.9,25.0,30.23,NNW,337,5.0,11.0,67,0.00,,,0.00,Wunderground v.1.15,2013-12-30 14:08:00,
2013-12-30 08:09:00,34.9,25.0,30.23,NNW,343,6.0,11.0,67,0.00,,,0.00,Wunderground v.1.15,2013-12-30 14:09:00,
2013-12-30 08:12:00,34.7,24.5,30.23,NNW,339,6.0,6.0,66,0.00,,,0.00,Wunderground v.1.15,2013-12-30 14:12:00,
2013-12-30 08:13:00,34.7,24.5,30.23,NNW,330,6.0,6.0,66,0.00,,,0.00,Wunderground v.1.15,2013-12-30 14:13:00,
2013-12-30 08:17:00,34.7,24.5,30.23,NNW,335,6.0,7.0,66,0.00,,,0.00,Wunderground v.1.15,2013-12-30 14:17:00,
2013-12-30 08:18:00,34.7,24.5,30.25,NW,304,6.0,7.0,66,0.00,,,0.00,Wunderground v.1.15,2013-12-30 14:18:00,
2013-12-30 08:19:00,34.7,24.5,30.25,NW,304,5.0,7.0,66,0.00,,,0.00,Wunderground v.1.15,2013-12-30 14:19:00,
2013-12-30 08:23:00,34.7,24.5,30.25,North,349,5.0,9.0,66,0.00,,,0.00,Wunderground v.1.15,2013-12-30 14:23:00,
2013-12-30 08:24:00,34.7,24.5,30.25,WNW,294,5.0,10.0,66,0.00,,,0.00,Wunderground v.1.15,2013-12-30 14:24:00,
2013-12-30 08:25:00,34.7,24.5,30.25,North,354,5.0,10.0,66,0.00,,,0.00,Wunderground v.1.15,2013-12-30 14:25:00,
2013-12-30 08:26:00,34.6,24.4,30.25,North,352,5.0,10.0,66,0.00,,,0.00,Wunderground v.1.15,2013-12-30 14:26:00,
2013-12-30 08:28:00,34.6,24.4,30.25,NNW,336,5.0,10.0,66,0.00,,,0.00,Wunderground v.1.15,2013-12-30 14:28:00,
2013-12-30 08:29:00,34.6,24.4,30.25,NNW,335,5.0,10.0,66,0.00,,,0.00,Wunderground v.1.15,2013-12-30 14:29:00,
2013-12-30 08:32:00,34.6,24.0,30.25,NW,312,5.0,5.0,65,0.00,,,0.00,Wunderground v.1.15,2013-12-30 14:32:00,
2013-12-30 08:33:00,34.6,24.0,30.25,NNW,332,5.0,5.0,65,0.00,,,0.00,Wunderground v.1.15,2013-12-30 14:33:00,
2013-12-30 08:34:00,34.6,24.0,30.25,North,349,4.0,5.0,65,0.00,,,0.00,Wunderground v.1.15,2013-12-30 14:34:00,
2013-12-30 08:38:00,34.6,23.7,30.25,North,6,5.0,13.0,64,0.00,,,0.00,Wunderground v.1.15,2013-12-30 14:38:00,
2013-12-30 08:39:00,34.6,23.7,30.25,North,0,5.0,13.0,64,0.00,,,0.00,Wunderground v.1.15,2013-12-30 14:39:00,
2013-12-30 08:42:00,34.4,23.5,30.25,NW,306,5.0,5.0,64,0.00,,,0.00,Wunderground v.1.15,2013-12-30 14:42:00,
2013-12-30 08:44:00,34.4,23.5,30.25,NW,311,5.0,11.0,64,0.00,,,0.00,Wunderground v.1.15,2013-12-30 14:44:00,
2013-12-30 08:45:00,34.4,23.1,30.25,North,353,6.0,11.0,63,0.00,,,0.00,Wunderground v.1.15,2013-12-30 14:45:00,
2013-12-30 08:47:00,34.4,23.1,30.25,NNE,14,6.0,11.0,63,0.00,,,0.00,Wunderground v.1.15,2013-12-30 14:47:00,
2013-12-30 08:48:00,34.4,23.1,30.27,North,6,5.0,11.0,63,0.00,,,0.00,Wunderground v.1.15,2013-12-30 14:48:00,
2013-12-30 08:49:00,34.4,23.1,30.27,NNE,16,5.0,11.0,63,0.00,,,0.00,Wunderground v.1.15,2013-12-30 14:49:00,
2013-12-30 08:52:00,34.3,23.0,30.27,North,6,6.0,6.0,63,0.00,,,0.00,Wunderground v.1.15,2013-12-30 14:52:00,
2013-12-30 08:53:00,34.3,22.6,30.27,North,3,6.0,7.0,62,0.00,,,0.00,Wunderground v.1.15,2013-12-30 14:53:00,
2013-12-30 08:56:00,34.3,22.6,30.27,NNE,14,6.0,7.0,62,0.00,,,0.00,Wunderground v.1.15,2013-12-30 14:56:00,
2013-12-30 08:57:00,34.3,22.6,30.27,NNW,339,6.0,7.0,62,0.00,,,0.00,Wunderground v.1.15,2013-12-30 14:57:00,
2013-12-30 08:58:00,34.3,22.2,30.27,North,0,6.0,7.0,61,0.00,,,0.00,Wunderground v.1.15,2013-12-30 14:58:00,
2013-12-30 09:02:00,34.1,22.0,30.27,NNW,342,6.0,6.0,61,0.00,,,0.00,Wunderground v.1.15,2013-12-30 15:02:00,
2013-12-30 09:04:00,34.1,22.0,30.28,NNW,335,6.0,10.0,61,0.00,,,0.00,Wunderground v.1.15,2013-12-30 15:04:00,
2013-12-30 09:05:00,34.1,22.0,30.28,North,11,7.0,10.0,61,0.00,,,0.00,Wunderground v.1.15,2013-12-30 15:05:00,
2013-12-30 09:06:00,34.1,22.0,30.28,North,0,6.0,10.0,61,0.00,,,0.00,Wunderground v.1.15,2013-12-30 15:06:00,
2013-12-30 09:08:00,34.1,22.0,30.28,NNE,21,6.0,10.0,61,0.00,,,0.00,Wunderground v.1.15,2013-12-30 15:08:00,
2013-12-30 09:12:00,34.1,22.0,30.28,North,4,7.0,9.0,61,0.00,,,0.00,Wunderground v.1.15,2013-12-30 15:12:00,
2013-12-30 09:13:00,34.1,22.0,30.28,North,10,7.0,9.0,61,0.00,,,0.00,Wunderground v.1.15,2013-12-30 15:13:00,
2013-12-30 09:18:00,34.1,22.0,30.28,NNW,343,7.0,9.0,61,0.00,,,0.00,Wunderground v.1.15,2013-12-30 15:18:00,
2013-12-30 09:22:00,34.3,22.2,30.28,NE,38,6.0,6.0,61,0.00,,,0.00,Wunderground v.1.15,2013-12-30 15:22:00,
2013-12-30 09:23:00,34.3,21.8,30.28,North,7,6.0,6.0,60,0.00,,,0.00,Wunderground v.1.15,2013-12-30 15:23:00,
2013-12-30 09:25:00,34.3,21.8,30.28,NNE,17,6.0,12.0,60,0.00,,,0.00,Wunderground v.1.15,2013-12-30 15:25:00,
2013-12-30 09:26:00,34.3,21.8,30.28,NNE,14,6.0,12.0,60,0.00,,,0.00,Wunderground v.1.15,2013-12-30 15:26:00,
2013-12-30 09:29:00,34.3,21.8,30.28,NNE,32,8.0,12.0,60,0.00,,,0.00,Wunderground v.1.15,2013-12-30 15:29:00,
2013-12-30 09:32:00,34.3,21.8,30.28,NNE,17,9.0,9.0,60,0.00,,,0.00,Wunderground v.1.15,2013-12-30 15:32:00,
2013-12-30 09:33:00,34.3,21.8,30.29,NNE,30,8.0,9.0,60,0.00,,,0.00,Wunderground v.1.15,2013-12-30 15:33:00,
2013-12-30 09:34:00,34.3,21.8,30.29,North,352,8.0,9.0,60,0.00,,,0.00,Wunderground v.1.15,2013-12-30 15:34:00,
2013-12-30 09:35:00,34.4,21.9,30.29,North,356,8.0,9.0,60,0.00,,,0.00,Wunderground v.1.15,2013-12-30 15:35:00,
2013-12-30 09:36:00,34.4,21.9,30.29,North,357,8.0,9.0,60,0.00,,,0.00,Wunderground v.1.15,2013-12-30 15:36:00,
2013-12-30 09:39:00,34.4,21.9,30.29,North,1,7.0,9.0,60,0.00,,,0.00,Wunderground v.1.15,2013-12-30 15:39:00,
2013-12-30 09:42:00,34.6,22.5,30.29,North,0,7.0,7.0,61,0.00,,,0.00,Wunderground v.1.15,2013-12-30 15:42:00,
2013-12-30 09:43:00,34.6,22.5,30.29,NNE,13,7.0,7.0,61,0.00,,,0.00,Wunderground v.1.15,2013-12-30 15:43:00,
2013-12-30 09:44:00,34.7,22.6,30.29,North,10,7.0,7.0,61,0.00,,,0.00,Wunderground v.1.15,2013-12-30 15:44:00,
2013-12-30 09:45:00,34.7,22.6,30.29,North,0,7.0,7.0,61,0.00,,,0.00,Wunderground v.1.15,2013-12-30 15:45:00,
2013-12-30 09:49:00,34.9,22.4,30.28,NNW,340,7.0,11.0,60,0.00,,,0.00,Wunderground v.1.15,2013-12-30 15:49:00,
2013-12-30 09:52:00,34.9,22.4,30.28,NNW,346,7.0,11.0,60,0.00,,,0.00,Wunderground v.1.15,2013-12-30 15:52:00,
2013-12-30 09:53:00,34.9,22.4,30.28,NNW,346,8.0,11.0,60,0.00,,,0.00,Wunderground v.1.15,2013-12-30 15:53:00,
2013-12-30 09:54:00,34.9,22.4,30.28,North,0,8.0,11.0,60,0.00,,,0.00,Wunderground v.1.15,2013-12-30 15:54:00,
2013-12-30 09:55:00,34.9,22.4,30.28,NNW,344,8.0,11.0,60,0.00,,,0.00,Wunderground v.1.15,2013-12-30 15:55:00,
2013-12-30 09:57:00,34.9,22.4,30.28,NNE,21,8.0,11.0,60,0.00,,,0.00,Wunderground v.1.15,2013-12-30 15:57:00,
2013-12-30 09:59:00,34.9,22.4,30.28,NNE,21,7.0,11.0,60,0.00,,,0.00,Wunderground v.1.15,2013-12-30 15:59:00,
2013-12-30 10:02:00,34.9,22.0,30.28,NNE,24,8.0,8.0,59,0.00,,,0.00,Wunderground v.1.15,2013-12-30 16:02:00,
2013-12-30 10:03:00,34.9,22.4,30.28,North,0,8.0,8.0,60,0.00,,,0.00,Wunderground v.1.15,2013-12-30 16:03:00,
2013-12-30 10:06:00,35.0,22.5,30.28,NNE,14,7.0,8.0,60,0.00,,,0.00,Wunderground v.1.15,2013-12-30 16:06:00,
2013-12-30 10:07:00,35.0,22.5,30.28,NNE,13,7.0,8.0,60,0.00,,,0.00,Wunderground v.1.15,2013-12-30 16:07:00,
2013-12-30 10:08:00,35.0,22.5,30.28,North,0,7.0,8.0,60,0.00,,,0.00,Wunderground v.1.15,2013-12-30 16:08:00,
2013-12-30 10:12:00,35.2,22.7,30.28,North,7,7.0,7.0,60,0.00,,,0.00,Wunderground v.1.15,2013-12-30 16:12:00,
2013-12-30 10:14:00,35.0,22.1,30.28,NNE,21,7.0,14.0,59,0.00,,,0.00,Wunderground v.1.15,2013-12-30 16:14:00,
2013-12-30 10:18:00,35.2,22.3,30.30,NNE,23,7.0,14.0,59,0.00,,,0.00,Wunderground v.1.15,2013-12-30 16:18:00,
2013-12-30 10:19:00,35.0,22.1,30.30,NNE,27,8.0,14.0,59,0.00,,,0.00,Wunderground v.1.15,2013-12-30 16:19:00,
2013-12-30 10:22:00,35.2,22.7,30.30,North,6,7.0,7.0,60,0.00,,,0.00,Wunderground v.1.15,2013-12-30 16:22:00,
2013-12-30 10:23:00,35.2,22.7,30.30,North,0,7.0,7.0,60,0.00,,,0.00,Wunderground v.1.15,2013-12-30 16:23:00,
2013-12-30 10:24:00,35.2,22.7,30.30,North,7,7.0,8.0,60,0.00,,,0.00,Wunderground v.1.15,2013-12-30 16:24:00,
2013-12-30 10:26:00,35.3,22.8,30.30,NE,54,7.0,8.0,60,0.00,,,0.00,Wunderground v.1.15,2013-12-30 16:26:00,
2013-12-30 10:28:00,35.3,22.8,30.30,North,8,7.0,8.0,60,0.00,,,0.00,Wunderground v.1.15,2013-12-30 16:28:00,
2013-12-30 10:29:00,35.5,23.0,30.30,North,1,6.0,8.0,60,0.00,,,0.00,Wunderground v.1.15,2013-12-30 16:29:00,
2013-12-30 10:32:00,35.6,22.7,30.30,NNE,30,6.0,7.0,59,0.00,,,0.00,Wunderground v.1.15,2013-12-30 16:32:00,
2013-12-30 10:34:00,35.6,22.7,30.30,NNE,24,6.0,7.0,59,0.00,,,0.00,Wunderground v.1.15,2013-12-30 16:34:00,
2013-12-30 10:35:00,35.8,22.9,30.30,North,1,6.0,9.0,59,0.00,,,0.00,Wunderground v.1.15,2013-12-30 16:35:00,
2013-12-30 10:37:00,35.8,22.9,30.30,NNW,339,7.0,9.0,59,0.00,,,0.00,Wunderground v.1.15,2013-12-30 16:37:00,
2013-12-30 10:38:00,35.8,22.9,30.30,NW,326,7.0,12.0,59,0.00,,,0.00,Wunderground v.1.15,2013-12-30 16:38:00,
2013-12-30 10:39:00,35.9,23.0,30.30,NNW,342,7.0,12.0,59,0.00,,,0.00,Wunderground v.1.15,2013-12-30 16:39:00,
2013-12-30 10:42:00,35.9,23.0,30.30,NE,47,8.0,8.0,59,0.00,,,0.00,Wunderground v.1.15,2013-12-30 16:42:00,
2013-12-30 10:44:00,35.9,22.5,30.30,NNE,17,8.0,11.0,58,0.00,,,0.00,Wunderground v.1.15,2013-12-30 16:44:00,
2013-12-30 10:45:00,35.9,22.5,30.30,North,4,8.0,11.0,58,0.00,,,0.00,Wunderground v.1.15,2013-12-30 16:45:00,
2013-12-30 10:47:00,35.9,22.5,30.30,NNW,343,8.0,11.0,58,0.00,,,0.00,Wunderground v.1.15,2013-12-30 16:47:00,
2013-12-30 10:52:00,36.0,22.6,30.28,WNW,301,8.0,8.0,58,0.00,,,0.00,Wunderground v.1.15,2013-12-30 16:52:00,
2013-12-30 10:53:00,36.0,22.6,30.28,NNE,17,8.0,14.0,58,0.00,,,0.00,Wunderground v.1.15,2013-12-30 16:53:00,
2013-12-30 10:54:00,36.0,22.6,30.28,NNE,24,8.0,14.0,58,0.00,,,0.00,Wunderground v.1.15,2013-12-30 16:54:00,
2013-12-30 10:56:00,36.2,22.8,30.28,NE,52,7.0,14.0,58,0.00,,,0.00,Wunderground v.1.15,2013-12-30 16:56:00,
2013-12-30 10:59:00,36.0,22.6,30.28,North,3,8.0,14.0,58,0.00,,,0.00,Wunderground v.1.15,2013-12-30 16:59:00,
2013-12-30 11:02:00,36.0,22.6,30.28,NNE,20,8.0,9.0,58,0.00,,,0.00,Wunderground v.1.15,2013-12-30 17:02:00,
2013-12-30 11:03:00,36.0,22.6,30.28,NNE,23,8.0,11.0,58,0.00,,,0.00,Wunderground v.1.15,2013-12-30 17:03:00,
2013-12-30 11:04:00,36.0,22.6,30.28,NE,45,8.0,11.0,58,0.00,,,0.00,Wunderground v.1.15,2013-12-30 17:04:00,
2013-12-30 11:05:00,36.0,22.6,30.28,NE,55,8.0,11.0,58,0.00,,,0.00,Wunderground v.1.15,2013-12-30 17:05:00,
2013-12-30 11:07:00,36.0,22.6,30.28,North,8,8.0,11.0,58,0.00,,,0.00,Wunderground v.1.15,2013-12-30 17:07:00,
2013-12-30 11:09:00,35.9,22.5,30.28,NNE,25,8.0,11.0,58,0.00,,,0.00,Wunderground v.1.15,2013-12-30 17:09:00,
2013-12-30 11:13:00,36.0,22.6,30.28,NE,48,7.0,8.0,58,0.00,,,0.00,Wunderground v.1.15,2013-12-30 17:13:00,
2013-12-30 11:14:00,36.0,22.6,30.28,NNE,28,7.0,8.0,58,0.00,,,0.00,Wunderground v.1.15,2013-12-30 17:14:00,
2013-12-30 11:15:00,36.2,22.8,30.28,North,0,6.0,8.0,58,0.00,,,0.00,Wunderground v.1.15,2013-12-30 17:15:00,
2013-12-30 11:17:00,36.2,22.8,30.28,NE,34,6.0,8.0,58,0.00,,,0.00,Wunderground v.1.15,2013-12-30 17:17:00,
2013-12-30 11:19:00,36.3,22.9,30.30,North,0,6.0,8.0,58,0.00,,,0.00,Wunderground v.1.15,2013-12-30 17:19:00,
2013-12-30 11:22:00,36.3,22.9,30.30,NNE,30,5.0,6.0,58,0.00,,,0.00,Wunderground v.1.15,2013-12-30 17:22:00,
2013-12-30 11:23:00,36.5,23.1,30.30,NNE,31,6.0,6.0,58,0.00,,,0.00,Wunderground v.1.15,2013-12-30 17:23:00,
2013-12-30 11:24:00,36.5,23.1,30.30,North,356,6.0,7.0,58,0.00,,,0.00,Wunderground v.1.15,2013-12-30 17:24:00,
2013-12-30 11:26:00,36.5,23.1,30.30,North,4,7.0,8.0,58,0.00,,,0.00,Wunderground v.1.15,2013-12-30 17:26:00,
2013-12-30 11:28:00,36.5,23.1,30.30,NE,35,6.0,8.0,58,0.00,,,0.00,Wunderground v.1.15,2013-12-30 17:28:00,
2013-12-30 11:29:00,36.5,22.7,30.30,NW,311,7.0,8.0,57,0.00,,,0.00,Wunderground v.1.15,2013-12-30 17:29:00,
2013-12-30 11:32:00,36.6,22.8,30.30,North,354,7.0,7.0,57,0.00,,,0.00,Wunderground v.1.15,2013-12-30 17:32:00,
2013-12-30 11:33:00,36.6,23.2,30.30,NW,325,7.0,7.0,58,0.00,,,0.00,Wunderground v.1.15,2013-12-30 17:33:00,
2013-12-30 11:34:00,36.6,23.2,30.30,North,1,7.0,8.0,58,0.00,,,0.00,Wunderground v.1.15,2013-12-30 17:34:00,
2013-12-30 11:36:00,36.8,23.0,30.30,North,3,6.0,8.0,57,0.00,,,0.00,Wunderground v.1.15,2013-12-30 17:36:00,
2013-12-30 11:37:00,36.8,23.0,30.30,North,8,6.0,8.0,57,0.00,,,0.00,Wunderground v.1.15,2013-12-30 17:37:00,
2013-12-30 11:39:00,36.9,23.1,30.30,North,357,6.0,8.0,57,0.00,,,0.00,Wunderground v.1.15,2013-12-30 17:39:00,
2013-12-30 11:42:00,36.9,23.1,30.30,North,0,6.0,6.0,57,0.00,,,0.00,Wunderground v.1.15,2013-12-30 17:42:00,
2013-12-30 11:44:00,36.9,22.7,30.30,North,8,6.0,10.0,56,0.00,,,0.00,Wunderground v.1.15,2013-12-30 17:44:00,
2013-12-30 11:45:00,36.9,22.7,30.30,NE,47,7.0,10.0,56,0.00,,,0.00,Wunderground v.1.15,2013-12-30 17:45:00,
2013-12-30 11:46:00,36.9,22.7,30.30,North,354,7.0,10.0,56,0.00,,,0.00,Wunderground v.1.15,2013-12-30 17:46:00,
2013-12-30 11:49:00,36.9,22.7,30.29,North,1,7.0,11.0,56,0.00,,,0.00,Wunderground v.1.15,2013-12-30 17:49:00,
2013-12-30 11:52:00,36.9,23.1,30.29,NNW,339,7.0,7.0,57,0.00,,,0.00,Wunderground v.1.15,2013-12-30 17:52:00,
2013-12-30 11:53:00,37.0,23.2,30.29,NNE,14,7.0,7.0,57,0.00,,,0.00,Wunderground v.1.15,2013-12-30 17:53:00,
2013-12-30 11:54:00,37.0,23.2,30.29,NNW,340,6.0,7.0,57,0.00,,,0.00,Wunderground v.1.15,2013-12-30 17:54:00,
2013-12-30 11:55:00,37.2,23.4,30.29,NNW,340,6.0,7.0,57,0.00,,,0.00,Wunderground v.1.15,2013-12-30 17:55:00,
2013-12-30 11:56:00,37.2,23.4,30.29,NNE,14,5.0,7.0,57,0.00,,,0.00,Wunderground v.1.15,2013-12-30 17:56:00,
2013-12-30 11:58:00,37.3,23.4,30.29,NNE,14,4.0,7.0,57,0.00,,,0.00,Wunderground v.1.15,2013-12-30 17:58:00,
2013-12-30 11:59:00,37.3,23.4,30.29,NNE,14,4.0,7.0,57,0.00,,,0.00,Wunderground v.1.15,2013-12-30 17:59:00,
2013-12-30 12:02:00,37.6,23.3,30.29,NNW,343,4.0,6.0,56,0.00,,,0.00,Wunderground v.1.15,2013-12-30 18:02:00,
2013-12-30 12:04:00,37.8,23.5,30.28,NNE,17,3.0,7.0,56,0.00,,,0.00,Wunderground v.1.15,2013-12-30 18:04:00,
2013-12-30 12:05:00,37.8,23.1,30.28,North,357,4.0,7.0,55,0.00,,,0.00,Wunderground v.1.15,2013-12-30 18:05:00,
2013-12-30 12:08:00,37.8,23.1,30.28,NNW,344,4.0,7.0,55,0.00,,,0.00,Wunderground v.1.15,2013-12-30 18:08:00,
2013-12-30 12:09:00,37.9,23.2,30.28,North,0,4.0,7.0,55,0.00,,,0.00,Wunderground v.1.15,2013-12-30 18:09:00,
2013-12-30 12:12:00,37.9,23.2,30.28,North,353,4.0,5.0,55,0.00,,,0.00,Wunderground v.1.15,2013-12-30 18:12:00,
2013-12-30 12:14:00,37.8,23.1,30.28,NNW,335,5.0,10.0,55,0.00,,,0.00,Wunderground v.1.15,2013-12-30 18:14:00,
2013-12-30 12:15:00,37.8,23.1,30.28,NNW,340,5.0,10.0,55,0.00,,,0.00,Wunderground v.1.15,2013-12-30 18:15:00,
2013-12-30 12:18:00,37.8,23.1,30.28,North,6,5.0,10.0,55,0.00,,,0.00,Wunderground v.1.15,2013-12-30 18:18:00,
2013-12-30 12:19:00,37.8,23.1,30.28,NNE,18,5.0,10.0,55,0.00,,,0.00,Wunderground v.1.15,2013-12-30 18:19:00,
2013-12-30 12:22:00,37.8,23.1,30.28,North,8,5.0,5.0,55,0.00,,,0.00,Wunderground v.1.15,2013-12-30 18:22:00,
2013-12-30 12:24:00,37.8,23.1,30.28,North,0,5.0,5.0,55,0.00,,,0.00,Wunderground v.1.15,2013-12-30 18:24:00,
2013-12-30 12:27:00,37.9,23.2,30.28,NNE,23,4.0,5.0,55,0.00,,,0.00,Wunderground v.1.15,2013-12-30 18:27:00,
2013-12-30 12:28:00,37.9,23.2,30.28,NNE,23,4.0,5.0,55,0.00,,,0.00,Wunderground v.1.15,2013-12-30 18:28:00,
2013-12-30 12:29:00,37.9,23.2,30.28,North,354,4.0,7.0,55,0.00,,,0.00,Wunderground v.1.15,2013-12-30 18:29:00,
2013-12-30 12:33:00,37.9,22.7,30.28,NW,326,4.0,4.0,54,0.00,,,0.00,Wunderground v.1.15,2013-12-30 18:33:00,
2013-12-30 12:34:00,38.0,23.3,30.28,NNW,347,4.0,4.0,55,0.00,,,0.00,Wunderground v.1.15,2013-12-30 18:34:00,
2013-12-30 12:36:00,38.2,23.4,30.28,NNW,330,4.0,5.0,55,0.00,,,0.00,Wunderground v.1.15,2013-12-30 18:36:00,
2013-12-30 12:37:00,38.2,23.4,30.28,NNW,333,4.0,5.0,55,0.00,,,0.00,Wunderground v.1.15,2013-12-30 18:37:00,
2013-12-30 12:38:00,38.2,23.0,30.28,NW,325,4.0,5.0,54,0.00,,,0.00,Wunderground v.1.15,2013-12-30 18:38:00,
2013-12-30 12:42:00,38.3,23.1,30.28,NW,322,4.0,4.0,54,0.00,,,0.00,Wunderground v.1.15,2013-12-30 18:42:00,
2013-12-30 12:43:00,38.3,23.1,30.28,NW,316,4.0,4.0,54,0.00,,,0.00,Wunderground v.1.15,2013-12-30 18:43:00,
2013-12-30 12:44:00,38.3,23.1,30.28,NNW,330,4.0,6.0,54,0.00,,,0.00,Wunderground v.1.15,2013-12-30 18:44:00,
2013-12-30 12:46:00,38.3,23.1,30.28,NW,311,4.0,6.0,54,0.00,,,0.00,Wunderground v.1.15,2013-12-30 18:46:00,
2013-12-30 12:49:00,38.3,23.1,30.26,NNE,23,4.0,7.0,54,0.00,,,0.00,Wunderground v.1.15,2013-12-30 18:49:00,
2013-12-30 12:52:00,38.3,23.1,30.26,NNE,18,4.0,4.0,54,0.00,,,0.00,Wunderground v.1.15,2013-12-30 18:52:00,
2013-12-30 12:54:00,38.3,23.1,30.26,North,0,4.0,6.0,54,0.00,,,0.00,Wunderground v.1.15,2013-12-30 18:54:00,
2013-12-30 12:55:00,38.3,23.1,30.26,North,0,4.0,6.0,54,0.00,,,0.00,Wunderground v.1.15,2013-12-30 18:55:00,
2013-12-30 12:59:00,38.3,23.5,30.26,NNW,329,4.0,6.0,55,0.00,,,0.00,Wunderground v.1.15,2013-12-30 18:59:00,
2013-12-30 13:03:00,38.5,23.3,30.25,NE,35,5.0,7.0,54,0.00,,,0.00,Wunderground v.1.15,2013-12-30 19:03:00,
2013-12-30 13:05:00,38.5,23.3,30.25,North,0,5.0,7.0,54,0.00,,,0.00,Wunderground v.1.15,2013-12-30 19:05:00,
2013-12-30 13:06:00,38.5,23.3,30.25,North,0,5.0,7.0,54,0.00,,,0.00,Wunderground v.1.15,2013-12-30 19:06:00,
2013-12-30 13:07:00,38.5,23.3,30.25,North,0,5.0,7.0,54,0.00,,,0.00,Wunderground v.1.15,2013-12-30 19:07:00,
2013-12-30 13:12:00,38.8,23.6,30.25,North,359,4.0,4.0,54,0.00,,,0.00,Wunderground v.1.15,2013-12-30 19:12:00,
2013-12-30 13:13:00,38.8,23.6,30.25,North,359,4.0,4.0,54,0.00,,,0.00,Wunderground v.1.15,2013-12-30 19:13:00,
2013-12-30 13:14:00,38.8,23.6,30.25,North,0,4.0,4.0,54,0.00,,,0.00,Wunderground v.1.15,2013-12-30 19:14:00,
2013-12-30 13:18:00,38.9,23.7,30.23,NNW,329,3.0,5.0,54,0.00,,,0.00,Wunderground v.1.15,2013-12-30 19:18:00,
2013-12-30 13:19:00,38.9,23.7,30.23,NW,322,3.0,7.0,54,0.00,,,0.00,Wunderground v.1.15,2013-12-30 19:19:00,
2013-12-30 13:23:00,39.1,23.8,30.23,NNE,25,3.0,4.0,54,0.00,,,0.00,Wunderground v.1.15,2013-12-30 19:23:00,
2013-12-30 13:24:00,39.2,23.9,30.23,NNE,21,4.0,5.0,54,0.00,,,0.00,Wunderground v.1.15,2013-12-30 19:24:00,
2013-12-30 13:25:00,39.2,23.9,30.23,North,359,4.0,5.0,54,0.00,,,0.00,Wunderground v.1.15,2013-12-30 19:25:00,
2013-12-30 13:27:00,39.3,24.0,30.23,NNE,18,4.0,5.0,54,0.00,,,0.00,Wunderground v.1.15,2013-12-30 19:27:00,
2013-12-30 13:32:00,39.5,23.8,30.23,NNW,343,4.0,4.0,53,0.00,,,0.00,Wunderground v.1.15,2013-12-30 19:32:00,
2013-12-30 13:33:00,39.5,23.8,30.23,North,0,4.0,4.0,53,0.00,,,0.00,Wunderground v.1.15,2013-12-30 19:33:00,
2013-12-30 13:35:00,39.6,23.9,30.23,North,359,4.0,4.0,53,0.00,,,0.00,Wunderground v.1.15,2013-12-30 19:35:00,
2013-12-30 13:38:00,39.8,24.0,30.23,NNW,329,4.0,6.0,53,0.00,,,0.00,Wunderground v.1.15,2013-12-30 19:38:00,
2013-12-30 13:39:00,39.8,24.0,30.23,NNW,329,4.0,6.0,53,0.00,,,0.00,Wunderground v.1.15,2013-12-30 19:39:00,
2013-12-30 13:42:00,39.9,24.1,30.23,NNE,14,3.0,4.0,53,0.00,,,0.00,Wunderground v.1.15,2013-12-30 19:42:00,
2013-12-30 13:45:00,40.1,23.9,30.23,NNE,28,3.0,6.0,52,0.00,,,0.00,Wunderground v.1.15,2013-12-30 19:45:00,
2013-12-30 13:47:00,40.1,23.9,30.23,NNW,339,3.0,6.0,52,0.00,,,0.00,Wunderground v.1.15,2013-12-30 19:47:00,
2013-12-30 13:48:00,40.1,23.9,30.23,North,349,3.0,6.0,52,0.00,,,0.00,Wunderground v.1.15,2013-12-30 19:48:00,
2013-12-30 13:49:00,40.1,23.9,30.23,North,349,3.0,6.0,52,0.00,,,0.00,Wunderground v.1.15,2013-12-30 19:49:00,
2013-12-30 13:53:00,40.2,24.0,30.23,NW,316,3.0,5.0,52,0.00,,,0.00,Wunderground v.1.15,2013-12-30 19:53:00,
2013-12-30 13:55:00,40.2,24.4,30.23,NNW,339,3.0,5.0,53,0.00,,,0.00,Wunderground v.1.15,2013-12-30 19:55:00,
2013-12-30 13:56:00,40.2,24.4,30.23,NNW,339,3.0,5.0,53,0.00,,,0.00,Wunderground v.1.15,2013-12-30 19:56:00,
2013-12-30 14:02:00,40.3,24.1,30.23,NNW,340,3.0,3.0,52,0.00,,,0.00,Wunderground v.1.15,2013-12-30 20:02:00,
2013-12-30 14:03:00,40.5,24.2,30.23,NNW,340,3.0,3.0,52,0.00,,,0.00,Wunderground v.1.15,2013-12-30 20:03:00,
2013-12-30 14:06:00,40.5,24.2,30.23,NW,318,3.0,6.0,52,0.00,,,0.00,Wunderground v.1.15,2013-12-30 20:06:00,
2013-12-30 14:08:00,40.6,24.8,30.23,NW,318,3.0,6.0,53,0.00,,,0.00,Wunderground v.1.15,2013-12-30 20:08:00,
2013-12-30 14:12:00,40.8,24.5,30.23,North,0,3.0,3.0,52,0.00,,,0.00,Wunderground v.1.15,2013-12-30 20:12:00,
2013-12-30 14:13:00,40.9,24.6,30.23,North,359,3.0,4.0,52,0.00,,,0.00,Wunderground v.1.15,2013-12-30 20:13:00,
2013-12-30 14:15:00,40.9,24.6,30.23,NNW,339,2.0,4.0,52,0.00,,,0.00,Wunderground v.1.15,2013-12-30 20:15:00,
2013-12-30 14:16:00,41.1,24.8,30.23,NNW,339,2.0,4.0,52,0.00,,,0.00,Wunderground v.1.15,2013-12-30 20:16:00,
2013-12-30 14:18:00,41.1,24.8,30.23,NNW,339,2.0,4.0,52,0.00,,,0.00,Wunderground v.1.15,2013-12-30 20:18:00,
2013-12-30 14:19:00,41.1,24.8,30.23,NNW,339,2.0,4.0,52,0.00,,,0.00,Wunderground v.1.15,2013-12-30 20:19:00,
2013-12-30 14:22:00,41.1,24.8,30.23,NNW,342,2.0,3.0,52,0.00,,,0.00,Wunderground v.1.15,2013-12-30 20:22:00,
2013-12-30 14:23:00,41.2,24.9,30.23,NNW,342,2.0,4.0,52,0.00,,,0.00,Wunderground v.1.15,2013-12-30 20:23:00,
2013-12-30 14:24:00,41.2,24.9,30.23,NNW,342,2.0,4.0,52,0.00,,,0.00,Wunderground v.1.15,2013-12-30 20:24:00,
2013-12-30 14:25:00,41.2,24.9,30.23,NNW,336,2.0,6.0,52,0.00,,,0.00,Wunderground v.1.15,2013-12-30 20:25:00,
2013-12-30 14:26:00,41.3,25.0,30.23,North,352,2.0,6.0,52,0.00,,,0.00,Wunderground v.1.15,2013-12-30 20:26:00,
2013-12-30 14:32:00,41.5,25.2,30.23,NNW,328,3.0,3.0,52,0.00,,,0.00,Wunderground v.1.15,2013-12-30 20:32:00,
2013-12-30 14:33:00,41.5,25.2,30.23,NNW,330,3.0,3.0,52,0.00,,,0.00,Wunderground v.1.15,2013-12-30 20:33:00,
2013-12-30 14:34:00,41.5,25.2,30.23,North,352,3.0,3.0,52,0.00,,,0.00,Wunderground v.1.15,2013-12-30 20:34:00,
2013-12-30 14:35:00,41.6,25.3,30.23,North,353,3.0,6.0,52,0.00,,,0.00,Wunderground v.1.15,2013-12-30 20:35:00,
2013-12-30 14:36:00,41.6,25.3,30.23,North,353,3.0,6.0,52,0.00,,,0.00,Wunderground v.1.15,2013-12-30 20:36:00,
2013-12-30 14:39:00,41.6,25.3,30.23,North,353,2.0,6.0,52,0.00,,,0.00,Wunderground v.1.15,2013-12-30 20:39:00,
2013-12-30 14:42:00,41.8,25.4,30.23,North,6,2.0,4.0,52,0.00,,,0.00,Wunderground v.1.15,2013-12-30 20:42:00,
2013-12-30 14:43:00,41.9,25.5,30.23,North,6,2.0,4.0,52,0.00,,,0.00,Wunderground v.1.15,2013-12-30 20:43:00,
2013-12-30 14:44:00,41.9,25.5,30.23,North,4,2.0,4.0,52,0.00,,,0.00,Wunderground v.1.15,2013-12-30 20:44:00,
2013-12-30 14:45:00,41.9,25.5,30.23,North,354,2.0,5.0,52,0.00,,,0.00,Wunderground v.1.15,2013-12-30 20:45:00,
2013-12-30 14:47:00,41.9,25.5,30.23,NNW,339,2.0,5.0,52,0.00,,,0.00,Wunderground v.1.15,2013-12-30 20:47:00,
2013-12-30 14:48:00,41.9,25.5,30.23,NNW,344,2.0,5.0,52,0.00,,,0.00,Wunderground v.1.15,2013-12-30 20:48:00,
2013-12-30 14:52:00,42.1,25.7,30.23,North,359,3.0,3.0,52,0.00,,,0.00,Wunderground v.1.15,2013-12-30 20:52:00,
2013-12-30 14:54:00,42.1,25.3,30.23,NNW,337,3.0,3.0,51,0.00,,,0.00,Wunderground v.1.15,2013-12-30 20:54:00,
2013-12-30 14:56:00,42.1,25.7,30.23,NNW,342,3.0,6.0,52,0.00,,,0.00,Wunderground v.1.15,2013-12-30 20:56:00,
2013-12-30 14:59:00,42.2,25.8,30.23,North,359,3.0,11.0,52,0.00,,,0.00,Wunderground v.1.15,2013-12-30 20:59:00,
2013-12-30 15:02:00,42.2,25.8,30.23,North,3,4.0,6.0,52,0.00,,,0.00,Wunderground v.1.15,2013-12-30 21:02:00,
2013-12-30 15:03:00,42.2,25.8,30.22,North,1,4.0,6.0,52,0.00,,,0.00,Wunderground v.1.15,2013-12-30 21:03:00,
2013-12-30 15:04:00,42.2,25.8,30.22,North,1,4.0,6.0,52,0.00,,,0.00,Wunderground v.1.15,2013-12-30 21:04:00,
2013-12-30 15:08:00,42.3,25.9,30.22,NNE,24,4.0,6.0,52,0.00,,,0.00,Wunderground v.1.15,2013-12-30 21:08:00,
2013-12-30 15:09:00,42.3,25.9,30.22,NNE,16,3.0,6.0,52,0.00,,,0.00,Wunderground v.1.15,2013-12-30 21:09:00,
2013-12-30 15:12:00,42.3,25.9,30.22,NNE,17,3.0,3.0,52,0.00,,,0.00,Wunderground v.1.15,2013-12-30 21:12:00,
2013-12-30 15:13:00,42.5,26.1,30.22,NNE,18,2.0,4.0,52,0.00,,,0.00,Wunderground v.1.15,2013-12-30 21:13:00,
2013-12-30 15:14:00,42.5,26.1,30.22,NNE,18,2.0,4.0,52,0.00,,,0.00,Wunderground v.1.15,2013-12-30 21:14:00,
2013-12-30 15:15:00,42.5,25.6,30.22,NNE,18,2.0,4.0,51,0.00,,,0.00,Wunderground v.1.15,2013-12-30 21:15:00,
2013-12-30 15:16:00,42.5,26.1,30.22,NW,325,2.0,4.0,52,0.00,,,0.00,Wunderground v.1.15,2013-12-30 21:16:00,
2013-12-30 15:22:00,42.6,26.6,30.22,NW,325,1.0,5.0,53,0.00,,,0.00,Wunderground v.1.15,2013-12-30 21:22:00,
2013-12-30 15:23:00,42.8,26.4,30.22,NW,325,1.0,5.0,52,0.00,,,0.00,Wunderground v.1.15,2013-12-30 21:23:00,
2013-12-30 15:25:00,42.8,26.4,30.22,NW,325,1.0,5.0,52,0.00,,,0.00,Wunderground v.1.15,2013-12-30 21:25:00,
2013-12-30 15:27:00,42.8,26.4,30.22,NW,325,1.0,5.0,52,0.00,,,0.00,Wunderground v.1.15,2013-12-30 21:27:00,
2013-12-30 15:28:00,42.8,26.4,30.22,NW,325,1.0,5.0,52,0.00,,,0.00,Wunderground v.1.15,2013-12-30 21:28:00,
2013-12-30 15:29:00,42.9,26.5,30.22,NW,325,1.0,5.0,52,0.00,,,0.00,Wunderground v.1.15,2013-12-30 21:29:00,
2013-12-30 15:33:00,42.9,26.5,30.22,NW,326,1.0,1.0,52,0.00,,,0.00,Wunderground v.1.15,2013-12-30 21:33:00,
2013-12-30 15:34:00,42.9,26.5,30.22,NW,326,1.0,2.0,52,0.00,,,0.00,Wunderground v.1.15,2013-12-30 21:34:00,
2013-12-30 15:36:00,42.9,26.5,30.22,NW,326,1.0,2.0,52,0.00,,,0.00,Wunderground v.1.15,2013-12-30 21:36:00,
2013-12-30 15:37:00,42.9,26.5,30.22,NW,326,1.0,2.0,52,0.00,,,0.00,Wunderground v.1.15,2013-12-30 21:37:00,
2013-12-30 15:42:00,43.1,26.7,30.22,NW,326,1.0,1.0,52,0.00,,,0.00,Wunderground v.1.15,2013-12-30 21:42:00,
2013-12-30 15:43:00,43.1,26.7,30.22,NW,326,1.0,1.0,52,0.00,,,0.00,Wunderground v.1.15,2013-12-30 21:43:00,
2013-12-30 15:47:00,43.1,26.7,30.22,NW,326,1.0,1.0,52,0.00,,,0.00,Wunderground v.1.15,2013-12-30 21:47:00,
2013-12-30 15:48:00,43.1,26.7,30.22,NW,326,1.0,1.0,52,0.00,,,0.00,Wunderground v.1.15,2013-12-30 21:48:00,
2013-12-30 15:49:00,43.1,26.7,30.22,NW,326,1.0,1.0,52,0.00,,,0.00,Wunderground v.1.15,2013-12-30 21:49:00,
2013-12-30 15:53:00,43.2,26.7,30.22,NW,326,1.0,1.0,52,0.00,,,0.00,Wunderground v.1.15,2013-12-30 21:53:00,
2013-12-30 15:54:00,43.2,26.7,30.22,NW,326,1.0,1.0,52,0.00,,,0.00,Wunderground v.1.15,2013-12-30 21:54:00,
2013-12-30 15:55:00,43.2,26.7,30.22,NW,326,0.0,2.0,52,0.00,,,0.00,Wunderground v.1.15,2013-12-30 21:55:00,
2013-12-30 15:59:00,43.2,26.7,30.22,NW,326,0.0,2.0,52,0.00,,,0.00,Wunderground v.1.15,2013-12-30 21:59:00,
2013-12-30 16:02:00,43.3,26.8,30.22,NW,326,0.0,1.0,52,0.00,,,0.00,Wunderground v.1.15,2013-12-30 22:02:00,
2013-12-30 16:03:00,43.3,26.8,30.22,NW,326,0.0,2.0,52,0.00,,,0.00,Wunderground v.1.15,2013-12-30 22:03:00,
2013-12-30 16:04:00,43.3,26.8,30.22,NW,326,1.0,2.0,52,0.00,,,0.00,Wunderground v.1.15,2013-12-30 22:04:00,
2013-12-30 16:06:00,43.3,26.8,30.22,NW,326,0.0,2.0,52,0.00,,,0.00,Wunderground v.1.15,2013-12-30 22:06:00,
2013-12-30 16:09:00,43.3,26.8,30.22,NNW,330,0.0,2.0,52,0.00,,,0.00,Wunderground v.1.15,2013-12-30 22:09:00,
2013-12-30 16:12:00,43.2,26.7,30.22,NNW,330,0.0,2.0,52,0.00,,,0.00,Wunderground v.1.15,2013-12-30 22:12:00,
2013-12-30 16:13:00,43.2,26.7,30.22,NNW,330,1.0,2.0,52,0.00,,,0.00,Wunderground v.1.15,2013-12-30 22:13:00,
2013-12-30 16:16:00,43.2,26.7,30.22,NNW,330,1.0,2.0,52,0.00,,,0.00,Wunderground v.1.15,2013-12-30 22:16:00,
2013-12-30 16:17:00,43.2,27.2,30.22,NNW,330,1.0,2.0,53,0.00,,,0.00,Wunderground v.1.15,2013-12-30 22:17:00,
2013-12-30 16:22:00,43.2,27.2,30.23,NNW,330,0.0,0.0,53,0.00,,,0.00,Wunderground v.1.15,2013-12-30 22:22:00,
2013-12-30 16:23:00,43.2,27.2,30.23,NNW,330,0.0,0.0,53,0.00,,,0.00,Wunderground v.1.15,2013-12-30 22:23:00,
2013-12-30 16:24:00,43.2,27.2,30.23,NNW,330,0.0,0.0,53,0.00,,,0.00,Wunderground v.1.15,2013-12-30 22:24:00,
2013-12-30 16:25:00,43.2,27.2,30.23,NNW,330,0.0,2.0,53,0.00,,,0.00,Wunderground v.1.15,2013-12-30 22:25:00,
2013-12-30 16:26:00,43.2,27.2,30.23,NNW,330,0.0,2.0,53,0.00,,,0.00,Wunderground v.1.15,2013-12-30 22:26:00,
2013-12-30 16:28:00,43.2,27.2,30.23,NNW,330,0.0,2.0,53,0.00,,,0.00,Wunderground v.1.15,2013-12-30 22:28:00,
2013-12-30 16:32:00,43.2,27.2,30.23,NNW,330,0.0,0.0,53,0.00,,,0.00,Wunderground v.1.15,2013-12-30 22:32:00,
2013-12-30 16:33:00,43.2,27.2,30.23,NNW,330,0.0,0.0,53,0.00,,,0.00,Wunderground v.1.15,2013-12-30 22:33:00,
2013-12-30 16:34:00,43.2,27.2,30.23,NNW,330,0.0,0.0,53,0.00,,,0.00,Wunderground v.1.15,2013-12-30 22:34:00,
2013-12-30 16:37:00,43.1,27.6,30.23,NNW,332,0.0,2.0,54,0.00,,,0.00,Wunderground v.1.15,2013-12-30 22:37:00,
2013-12-30 16:39:00,42.9,27.4,30.23,NNW,335,0.0,2.0,54,0.00,,,0.00,Wunderground v.1.15,2013-12-30 22:39:00,
2013-12-30 16:42:00,42.8,27.7,30.23,NNW,335,1.0,1.0,55,0.00,,,0.00,Wunderground v.1.15,2013-12-30 22:42:00,
2013-12-30 16:43:00,42.8,27.7,30.23,NNW,335,1.0,1.0,55,0.00,,,0.00,Wunderground v.1.15,2013-12-30 22:43:00,
2013-12-30 16:45:00,42.8,27.7,30.23,NNW,335,1.0,1.0,55,0.00,,,0.00,Wunderground v.1.15,2013-12-30 22:45:00,
2013-12-30 16:46:00,42.6,27.5,30.23,NNW,335,1.0,1.0,55,0.00,,,0.00,Wunderground v.1.15,2013-12-30 22:46:00,
2013-12-30 16:48:00,42.6,27.5,30.23,NNW,335,1.0,1.0,55,0.00,,,0.00,Wunderground v.1.15,2013-12-30 22:48:00,
2013-12-30 16:49:00,42.6,28.0,30.23,NNW,335,1.0,2.0,56,0.00,,,0.00,Wunderground v.1.15,2013-12-30 22:49:00,
2013-12-30 16:52:00,42.6,28.0,30.23,NNW,335,0.0,0.0,56,0.00,,,0.00,Wunderground v.1.15,2013-12-30 22:52:00,
2013-12-30 16:53:00,42.6,28.0,30.23,NNW,335,0.0,0.0,56,0.00,,,0.00,Wunderground v.1.15,2013-12-30 22:53:00,
2013-12-30 16:54:00,42.5,28.3,30.23,NNW,335,0.0,0.0,57,0.00,,,0.00,Wunderground v.1.15,2013-12-30 22:54:00,
2013-12-30 16:56:00,42.5,28.3,30.23,NNW,335,0.0,0.0,57,0.00,,,0.00,Wunderground v.1.15,2013-12-30 22:56:00,
2013-12-30 16:58:00,42.5,28.3,30.23,NNW,335,0.0,0.0,57,0.00,,,0.00,Wunderground v.1.15,2013-12-30 22:58:00,
2013-12-30 16:59:00,42.5,28.3,30.23,NNW,335,0.0,0.0,57,0.00,,,0.00,Wunderground v.1.15,2013-12-30 22:59:00,
2013-12-30 17:02:00,42.5,28.3,30.23,NNW,335,0.0,0.0,57,0.00,,,0.00,Wunderground v.1.15,2013-12-30 23:02:00,
2013-12-30 17:05:00,42.5,28.3,30.23,NNW,335,0.0,1.0,57,0.00,,,0.00,Wunderground v.1.15,2013-12-30 23:05:00,
2013-12-30 17:06:00,42.5,28.3,30.23,NNW,335,0.0,1.0,57,0.00,,,0.00,Wunderground v.1.15,2013-12-30 23:06:00,
2013-12-30 17:09:00,42.3,28.6,30.23,NNW,335,0.0,1.0,58,0.00,,,0.00,Wunderground v.1.15,2013-12-30 23:09:00,
2013-12-30 17:12:00,42.3,28.6,30.23,NNW,335,0.0,0.0,58,0.00,,,0.00,Wunderground v.1.15,2013-12-30 23:12:00,
2013-12-30 17:13:00,42.3,28.6,30.23,NNW,335,0.0,0.0,58,0.00,,,0.00,Wunderground v.1.15,2013-12-30 23:13:00,
2013-12-30 17:14:00,42.3,28.6,30.23,NNW,335,0.0,0.0,58,0.00,,,0.00,Wunderground v.1.15,2013-12-30 23:14:00,
2013-12-30 17:17:00,42.2,28.5,30.23,NNW,335,0.0,0.0,58,0.00,,,0.00,Wunderground v.1.15,2013-12-30 23:17:00,
2013-12-30 17:18:00,42.2,28.5,30.24,NNW,335,0.0,0.0,58,0.00,,,0.00,Wunderground v.1.15,2013-12-30 23:18:00,
2013-12-30 17:22:00,42.2,28.5,30.24,NNW,335,0.0,0.0,58,0.00,,,0.00,Wunderground v.1.15,2013-12-30 23:22:00,
2013-12-30 17:24:00,42.2,28.5,30.24,NNW,335,0.0,0.0,58,0.00,,,0.00,Wunderground v.1.15,2013-12-30 23:24:00,
2013-12-30 17:25:00,42.2,28.5,30.24,NNW,335,0.0,0.0,58,0.00,,,0.00,Wunderground v.1.15,2013-12-30 23:25:00,
2013-12-30 17:26:00,42.2,28.5,30.24,NNW,335,0.0,0.0,58,0.00,,,0.00,Wunderground v.1.15,2013-12-30 23:26:00,
2013-12-30 17:32:00,42.1,28.8,30.24,NNW,335,0.0,0.0,59,0.00,,,0.00,Wunderground v.1.15,2013-12-30 23:32:00,
2013-12-30 17:33:00,42.1,28.8,30.24,NNW,335,0.0,0.0,59,0.00,,,0.00,Wunderground v.1.15,2013-12-30 23:33:00,
2013-12-30 17:34:00,42.1,28.8,30.24,NNW,335,0.0,0.0,59,0.00,,,0.00,Wunderground v.1.15,2013-12-30 23:34:00,
2013-12-30 17:35:00,42.1,29.2,30.24,NNW,335,0.0,0.0,60,0.00,,,0.00,Wunderground v.1.15,2013-12-30 23:35:00,
2013-12-30 17:38:00,42.1,29.2,30.24,NNW,335,0.0,0.0,60,0.00,,,0.00,Wunderground v.1.15,2013-12-30 23:38:00,
2013-12-30 17:39:00,42.1,29.2,30.24,NNW,335,0.0,0.0,60,0.00,,,0.00,Wunderground v.1.15,2013-12-30 23:39:00,
2013-12-30 17:42:00,41.9,29.0,30.24,NNW,335,0.0,0.0,60,0.00,,,0.00,Wunderground v.1.15,2013-12-30 23:42:00,
2013-12-30 17:44:00,41.9,29.0,30.24,NNW,335,0.0,0.0,60,0.00,,,0.00,Wunderground v.1.15,2013-12-30 23:44:00,
2013-12-30 17:45:00,41.9,29.4,30.24,NNW,335,0.0,0.0,61,0.00,,,0.00,Wunderground v.1.15,2013-12-30 23:45:00,
2013-12-30 17:49:00,41.8,29.3,30.24,NNW,335,0.0,0.0,61,0.00,,,0.00,Wunderground v.1.15,2013-12-30 23:49:00,
2013-12-30 17:52:00,41.8,29.3,30.24,NNW,335,0.0,0.0,61,0.00,,,0.00,Wunderground v.1.15,2013-12-30 23:52:00,
2013-12-30 17:55:00,41.6,29.1,30.24,NNW,335,0.0,0.0,61,0.00,,,0.00,Wunderground v.1.15,2013-12-30 23:55:00,
2013-12-30 17:56:00,41.6,29.5,30.24,NNW,335,0.0,0.0,62,0.00,,,0.00,Wunderground v.1.15,2013-12-30 23:56:00,
2013-12-30 17:57:00,41.6,29.5,30.24,NNW,335,0.0,0.0,62,0.00,,,0.00,Wunderground v.1.15,2013-12-30 23:57:00,
2013-12-30 17:58:00,41.6,29.5,30.24,NNW,335,0.0,0.0,62,0.00,,,0.00,Wunderground v.1.15,2013-12-30 23:58:00,
2013-12-30 18:02:00,41.5,29.4,30.24,NNW,335,0.0,0.0,62,0.00,,,0.00,Wunderground v.1.15,2013-12-31 00:02:00,
2013-12-30 18:05:00,41.3,29.3,30.25,NNW,335,0.0,0.0,62,0.00,,,0.00,Wunderground v.1.15,2013-12-31 00:05:00,
2013-12-30 18:06:00,41.3,29.3,30.25,NNW,335,0.0,0.0,62,0.00,,,0.00,Wunderground v.1.15,2013-12-31 00:06:00,
2013-12-30 18:08:00,41.3,29.3,30.25,NNW,335,0.0,0.0,62,0.00,,,0.00,Wunderground v.1.15,2013-12-31 00:08:00,
2013-12-30 18:12:00,41.2,29.5,30.25,NNW,335,0.0,0.0,63,0.00,,,0.00,Wunderground v.1.15,2013-12-31 00:12:00,
2013-12-30 18:15:00,41.2,29.5,30.25,NNW,335,0.0,0.0,63,0.00,,,0.00,Wunderground v.1.15,2013-12-31 00:15:00,
2013-12-30 18:16:00,41.2,29.5,30.25,NNW,335,0.0,0.0,63,0.00,,,0.00,Wunderground v.1.15,2013-12-31 00:16:00,
2013-12-30 18:19:00,41.1,29.5,30.26,NNW,335,0.0,0.0,63,0.00,,,0.00,Wunderground v.1.15,2013-12-31 00:19:00,
2013-12-30 18:22:00,41.1,29.5,30.26,NNW,335,0.0,0.0,63,0.00,,,0.00,Wunderground v.1.15,2013-12-31 00:22:00,
2013-12-30 18:23:00,41.1,29.8,30.26,NNW,335,0.0,0.0,64,0.00,,,0.00,Wunderground v.1.15,2013-12-31 00:23:00,
2013-12-30 18:24:00,41.1,29.8,30.26,NNW,335,0.0,0.0,64,0.00,,,0.00,Wunderground v.1.15,2013-12-31 00:24:00,
2013-12-30 18:26:00,41.1,29.8,30.26,NNW,335,0.0,0.0,64,0.00,,,0.00,Wunderground v.1.15,2013-12-31 00:26:00,
2013-12-30 18:28:00,41.1,29.8,30.26,NNW,335,0.0,0.0,64,0.00,,,0.00,Wunderground v.1.15,2013-12-31 00:28:00,
2013-12-30 18:33:00,40.9,29.7,30.26,NNW,335,0.0,0.0,64,0.00,,,0.00,Wunderground v.1.15,2013-12-31 00:33:00,
2013-12-30 18:34:00,40.9,29.7,30.26,NNW,335,0.0,0.0,64,0.00,,,0.00,Wunderground v.1.15,2013-12-31 00:34:00,
2013-12-30 18:35:00,40.9,30.0,30.26,NNW,335,0.0,0.0,65,0.00,,,0.00,Wunderground v.1.15,2013-12-31 00:35:00,
2013-12-30 18:36:00,40.9,30.0,30.26,NNW,335,0.0,0.0,65,0.00,,,0.00,Wunderground v.1.15,2013-12-31 00:36:00,
2013-12-30 18:39:00,40.9,30.0,30.26,NNW,335,0.0,0.0,65,0.00,,,0.00,Wunderground v.1.15,2013-12-31 00:39:00,
2013-12-30 18:42:00,40.9,30.0,30.26,NNW,335,0.0,0.0,65,0.00,,,0.00,Wunderground v.1.15,2013-12-31 00:42:00,
2013-12-30 18:43:00,40.9,30.0,30.26,NNW,335,0.0,0.0,65,0.00,,,0.00,Wunderground v.1.15,2013-12-31 00:43:00,
2013-12-30 18:44:00,40.9,30.0,30.26,NNW,335,0.0,0.0,65,0.00,,,0.00,Wunderground v.1.15,2013-12-31 00:44:00,
2013-12-30 18:45:00,40.9,30.0,30.26,NNW,335,0.0,0.0,65,0.00,,,0.00,Wunderground v.1.15,2013-12-31 00:45:00,
2013-12-30 18:46:00,40.9,30.0,30.26,NNW,335,0.0,0.0,65,0.00,,,0.00,Wunderground v.1.15,2013-12-31 00:46:00,
2013-12-30 18:48:00,40.9,30.0,30.28,NNW,335,0.0,0.0,65,0.00,,,0.00,Wunderground v.1.15,2013-12-31 00:48:00,
2013-12-30 18:52:00,40.8,29.9,30.28,NNW,335,0.0,0.0,65,0.00,,,0.00,Wunderground v.1.15,2013-12-31 00:52:00,
2013-12-30 18:53:00,40.8,29.9,30.28,NNW,335,0.0,0.0,65,0.00,,,0.00,Wunderground v.1.15,2013-12-31 00:53:00,
2013-12-30 18:56:00,40.8,29.9,30.28,NNW,335,0.0,0.0,65,0.00,,,0.00,Wunderground v.1.15,2013-12-31 00:56:00,
2013-12-30 18:57:00,40.8,29.9,30.28,NNW,335,0.0,0.0,65,0.00,,,0.00,Wunderground v.1.15,2013-12-31 00:57:00,
2013-12-30 18:58:00,40.8,29.9,30.28,NNW,335,0.0,0.0,65,0.00,,,0.00,Wunderground v.1.15,2013-12-31 00:58:00,
2013-12-30 19:02:00,40.8,29.9,30.28,NNW,335,0.0,0.0,65,0.00,,,0.00,Wunderground v.1.15,2013-12-31 01:02:00,
2013-12-30 19:03:00,40.8,29.9,30.28,NNW,335,0.0,0.0,65,0.00,,,0.00,Wunderground v.1.15,2013-12-31 01:03:00,
2013-12-30 19:05:00,40.8,30.3,30.28,NNW,335,0.0,0.0,66,0.00,,,0.00,Wunderground v.1.15,2013-12-31 01:05:00,
2013-12-30 19:08:00,40.6,29.7,30.28,NNW,335,0.0,0.0,65,0.00,,,0.00,Wunderground v.1.15,2013-12-31 01:08:00,
2013-12-30 19:09:00,40.6,29.7,30.28,NNW,335,0.0,0.0,65,0.00,,,0.00,Wunderground v.1.15,2013-12-31 01:09:00,
2013-12-30 19:12:00,40.6,30.1,30.28,NNW,335,0.0,1.0,66,0.00,,,0.00,Wunderground v.1.15,2013-12-31 01:12:00,
2013-12-30 19:13:00,40.6,29.7,30.28,NNW,335,0.0,1.0,65,0.00,,,0.00,Wunderground v.1.15,2013-12-31 01:13:00,
2013-12-30 19:14:00,40.6,29.7,30.28,NNW,335,0.0,1.0,65,0.00,,,0.00,Wunderground v.1.15,2013-12-31 01:14:00,
2013-12-30 19:18:00,40.6,29.7,30.27,NNW,335,0.0,1.0,65,0.00,,,0.00,Wunderground v.1.15,2013-12-31 01:18:00,
2013-12-30 19:22:00,40.6,29.7,30.27,NNW,335,0.0,1.0,65,0.00,,,0.00,Wunderground v.1.15,2013-12-31 01:22:00,
2013-12-30 19:24:00,40.6,29.7,30.27,NNW,335,0.0,2.0,65,0.00,,,0.00,Wunderground v.1.15,2013-12-31 01:24:00,
2013-12-30 19:25:00,40.6,29.7,30.27,NNW,335,1.0,2.0,65,0.00,,,0.00,Wunderground v.1.15,2013-12-31 01:25:00,
2013-12-30 19:26:00,40.6,29.7,30.27,NNW,335,1.0,2.0,65,0.00,,,0.00,Wunderground v.1.15,2013-12-31 01:26:00,
2013-12-30 19:28:00,40.5,29.7,30.27,NNW,335,1.0,2.0,65,0.00,,,0.00,Wunderground v.1.15,2013-12-31 01:28:00,
2013-12-30 19:32:00,40.5,29.3,30.27,NNW,335,2.0,2.0,64,0.00,,,0.00,Wunderground v.1.15,2013-12-31 01:32:00,
2013-12-30 19:33:00,40.5,29.3,30.27,NNW,335,2.0,2.0,64,0.00,,,0.00,Wunderground v.1.15,2013-12-31 01:33:00,
2013-12-30 19:34:00,40.6,29.4,30.27,NNW,335,2.0,2.0,64,0.00,,,0.00,Wunderground v.1.15,2013-12-31 01:34:00,
2013-12-30 19:39:00,40.6,29.0,30.27,NNW,336,2.0,3.0,63,0.00,,,0.00,Wunderground v.1.15,2013-12-31 01:39:00,
2013-12-30 19:42:00,40.6,29.0,30.27,NNW,342,2.0,2.0,63,0.00,,,0.00,Wunderground v.1.15,2013-12-31 01:42:00,
2013-12-30 19:43:00,40.6,29.0,30.27,NNW,342,2.0,3.0,63,0.00,,,0.00,Wunderground v.1.15,2013-12-31 01:43:00,
2013-12-30 19:44:00,40.6,29.0,30.27,NNW,342,2.0,3.0,63,0.00,,,0.00,Wunderground v.1.15,2013-12-31 01:44:00,
2013-12-30 19:46:00,40.6,28.6,30.27,NNW,342,2.0,5.0,62,0.00,,,0.00,Wunderground v.1.15,2013-12-31 01:46:00,
2013-12-30 19:47:00,40.6,28.6,30.27,NNW,342,2.0,5.0,62,0.00,,,0.00,Wunderground v.1.15,2013-12-31 01:47:00,
2013-12-30 19:48:00,40.6,28.6,30.27,NNW,343,2.0,5.0,62,0.00,,,0.00,Wunderground v.1.15,2013-12-31 01:48:00,
2013-12-30 19:52:00,40.8,28.4,30.27,NNW,343,2.0,2.0,61,0.00,,,0.00,Wunderground v.1.15,2013-12-31 01:52:00,
2013-12-30 19:53:00,40.8,28.4,30.27,NNW,343,2.0,5.0,61,0.00,,,0.00,Wunderground v.1.15,2013-12-31 01:53:00,
2013-12-30 19:54:00,40.8,28.4,30.27,NNW,343,2.0,5.0,61,0.00,,,0.00,Wunderground v.1.15,2013-12-31 01:54:00,
2013-12-30 19:55:00,40.8,28.4,30.27,NNW,343,2.0,5.0,61,0.00,,,0.00,Wunderground v.1.15,2013-12-31 01:55:00,
2013-12-30 19:56:00,40.8,28.0,30.27,NNW,343,2.0,5.0,60,0.00,,,0.00,Wunderground v.1.15,2013-12-31 01:56:00,
2013-12-30 19:59:00,40.8,28.0,30.27,NNW,343,2.0,5.0,60,0.00,,,0.00,Wunderground v.1.15,2013-12-31 01:59:00,
2013-12-30 20:03:00,40.9,28.1,30.28,NNW,343,2.0,4.0,60,0.00,,,0.00,Wunderground v.1.15,2013-12-31 02:03:00,
2013-12-30 20:04:00,40.9,28.1,30.28,NNW,343,2.0,4.0,60,0.00,,,0.00,Wunderground v.1.15,2013-12-31 02:04:00,
2013-12-30 20:06:00,40.9,28.1,30.28,North,4,2.0,5.0,60,0.00,,,0.00,Wunderground v.1.15,2013-12-31 02:06:00,
2013-12-30 20:07:00,40.9,28.1,30.28,North,4,3.0,5.0,60,0.00,,,0.00,Wunderground v.1.15,2013-12-31 02:07:00,
2013-12-30 20:08:00,40.9,28.1,30.28,North,4,3.0,5.0,60,0.00,,,0.00,Wunderground v.1.15,2013-12-31 02:08:00,
2013-12-30 20:09:00,40.9,28.1,30.28,North,0,3.0,5.0,60,0.00,,,0.00,Wunderground v.1.15,2013-12-31 02:09:00,
2013-12-30 20:12:00,40.9,28.1,30.28,North,0,3.0,3.0,60,0.00,,,0.00,Wunderground v.1.15,2013-12-31 02:12:00,
2013-12-30 20:13:00,40.9,28.1,30.28,North,0,3.0,4.0,60,0.00,,,0.00,Wunderground v.1.15,2013-12-31 02:13:00,
2013-12-30 20:15:00,40.9,28.1,30.28,North,0,3.0,4.0,60,0.00,,,0.00,Wunderground v.1.15,2013-12-31 02:15:00,
2013-12-30 20:16:00,40.9,28.1,30.28,North,0,3.0,4.0,60,0.00,,,0.00,Wunderground v.1.15,2013-12-31 02:16:00,
2013-12-30 20:17:00,40.9,28.1,30.28,North,0,2.0,4.0,60,0.00,,,0.00,Wunderground v.1.15,2013-12-31 02:17:00,
2013-12-30 20:19:00,40.9,28.1,30.29,North,0,2.0,4.0,60,0.00,,,0.00,Wunderground v.1.15,2013-12-31 02:19:00,
2013-12-30 20:22:00,40.9,28.1,30.29,North,0,2.0,2.0,60,0.00,,,0.00,Wunderground v.1.15,2013-12-31 02:22:00,
2013-12-30 20:23:00,40.9,28.1,30.29,North,0,2.0,4.0,60,0.00,,,0.00,Wunderground v.1.15,2013-12-31 02:23:00,
2013-12-30 20:24:00,40.9,28.1,30.29,North,0,2.0,4.0,60,0.00,,,0.00,Wunderground v.1.15,2013-12-31 02:24:00,
2013-12-30 20:25:00,40.9,28.1,30.29,North,0,2.0,4.0,60,0.00,,,0.00,Wunderground v.1.15,2013-12-31 02:25:00,
2013-12-30 20:28:00,40.9,28.1,30.29,North,0,2.0,4.0,60,0.00,,,0.00,Wunderground v.1.15,2013-12-31 02:28:00,
2013-12-30 20:29:00,40.9,28.5,30.29,North,0,2.0,4.0,61,0.00,,,0.00,Wunderground v.1.15,2013-12-31 02:29:00,
2013-12-30 20:32:00,40.9,28.5,30.29,North,0,1.0,2.0,61,0.00,,,0.00,Wunderground v.1.15,2013-12-31 02:32:00,
2013-12-30 20:33:00,40.9,28.5,30.29,North,0,1.0,2.0,61,0.00,,,0.00,Wunderground v.1.15,2013-12-31 02:33:00,
2013-12-30 20:34:00,40.9,28.5,30.29,North,0,1.0,2.0,61,0.00,,,0.00,Wunderground v.1.15,2013-12-31 02:34:00,
2013-12-30 20:37:00,40.8,28.8,30.29,North,11,1.0,2.0,62,0.00,,,0.00,Wunderground v.1.15,2013-12-31 02:37:00,
2013-12-30 20:38:00,40.8,28.8,30.29,North,8,1.0,2.0,62,0.00,,,0.00,Wunderground v.1.15,2013-12-31 02:38:00,
2013-12-30 20:42:00,40.6,28.6,30.29,North,3,1.0,1.0,62,0.00,,,0.00,Wunderground v.1.15,2013-12-31 02:42:00,
2013-12-30 20:43:00,40.6,28.6,30.29,North,3,1.0,1.0,62,0.00,,,0.00,Wunderground v.1.15,2013-12-31 02:43:00,
2013-12-30 20:44:00,40.6,28.6,30.29,North,359,1.0,3.0,62,0.00,,,0.00,Wunderground v.1.15,2013-12-31 02:44:00,
2013-12-30 20:46:00,40.6,28.6,30.29,North,1,1.0,3.0,62,0.00,,,0.00,Wunderground v.1.15,2013-12-31 02:46:00,
2013-12-30 20:48:00,40.6,28.6,30.30,North,1,1.0,3.0,62,0.00,,,0.00,Wunderground v.1.15,2013-12-31 02:48:00,
2013-12-30 20:49:00,40.6,28.6,30.30,North,1,1.0,3.0,62,0.00,,,0.00,Wunderground v.1.15,2013-12-31 02:49:00,
2013-12-30 20:52:00,40.6,28.6,30.30,North,0,1.0,3.0,62,0.00,,,0.00,Wunderground v.1.15,2013-12-31 02:52:00,
2013-12-30 20:55:00,40.6,28.6,30.30,North,1,1.0,5.0,62,0.00,,,0.00,Wunderground v.1.15,2013-12-31 02:55:00,
2013-12-30 20:56:00,40.6,28.6,30.30,North,0,1.0,5.0,62,0.00,,,0.00,Wunderground v.1.15,2013-12-31 02:56:00,
2013-12-30 20:58:00,40.6,28.6,30.30,NNW,340,2.0,5.0,62,0.00,,,0.00,Wunderground v.1.15,2013-12-31 02:58:00,
2013-12-30 20:59:00,40.6,28.6,30.30,NNW,340,2.0,5.0,62,0.00,,,0.00,Wunderground v.1.15,2013-12-31 02:59:00,
2013-12-30 21:03:00,40.6,28.6,30.30,NNW,340,2.0,2.0,62,0.00,,,0.00,Wunderground v.1.15,2013-12-31 03:03:00,
2013-12-30 21:05:00,40.6,28.6,30.30,NNW,342,2.0,2.0,62,0.00,,,0.00,Wunderground v.1.15,2013-12-31 03:05:00,
2013-12-30 21:07:00,40.6,28.6,30.30,NNW,342,2.0,3.0,62,0.00,,,0.00,Wunderground v.1.15,2013-12-31 03:07:00,
2013-12-30 21:09:00,40.6,28.6,30.30,NNW,342,2.0,3.0,62,0.00,,,0.00,Wunderground v.1.15,2013-12-31 03:09:00,
2013-12-30 21:12:00,40.6,28.6,30.30,NNW,342,2.0,2.0,62,0.00,,,0.00,Wunderground v.1.15,2013-12-31 03:12:00,
2013-12-30 21:14:00,40.8,28.4,30.30,NNW,342,2.0,4.0,61,0.00,,,0.00,Wunderground v.1.15,2013-12-31 03:14:00,
2013-12-30 21:15:00,40.8,28.4,30.30,NNW,342,2.0,4.0,61,0.00,,,0.00,Wunderground v.1.15,2013-12-31 03:15:00,
2013-12-30 21:16:00,40.8,28.4,30.30,NNW,342,2.0,4.0,61,0.00,,,0.00,Wunderground v.1.15,2013-12-31 03:16:00,
2013-12-30 21:19:00,40.8,28.4,30.31,North,352,2.0,5.0,61,0.00,,,0.00,Wunderground v.1.15,2013-12-31 03:19:00,
2013-12-30 21:22:00,40.8,28.4,30.31,North,353,3.0,3.0,61,0.00,,,0.00,Wunderground v.1.15,2013-12-31 03:22:00,
2013-12-30 21:23:00,40.8,28.4,30.31,NW,313,3.0,6.0,61,0.00,,,0.00,Wunderground v.1.15,2013-12-31 03:23:00,
2013-12-30 21:24:00,40.8,28.4,30.31,NNW,339,3.0,6.0,61,0.00,,,0.00,Wunderground v.1.15,2013-12-31 03:24:00,
2013-12-30 21:27:00,40.8,28.4,30.31,NNW,343,4.0,6.0,61,0.00,,,0.00,Wunderground v.1.15,2013-12-31 03:27:00,
2013-12-30 21:32:00,40.8,28.4,30.31,North,352,4.0,4.0,61,0.00,,,0.00,Wunderground v.1.15,2013-12-31 03:32:00,
2013-12-30 21:33:00,40.9,28.5,30.32,North,0,4.0,4.0,61,0.00,,,0.00,Wunderground v.1.15,2013-12-31 03:33:00,
2013-12-30 21:34:00,40.9,28.1,30.32,NNW,344,4.0,4.0,60,0.00,,,0.00,Wunderground v.1.15,2013-12-31 03:34:00,
2013-12-30 21:36:00,40.9,28.1,30.32,NNW,337,4.0,7.0,60,0.00,,,0.00,Wunderground v.1.15,2013-12-31 03:36:00,
2013-12-30 21:38:00,40.9,28.1,30.32,NNW,335,4.0,7.0,60,0.00,,,0.00,Wunderground v.1.15,2013-12-31 03:38:00,
2013-12-30 21:39:00,40.9,28.1,30.32,NNW,336,4.0,7.0,60,0.00,,,0.00,Wunderground v.1.15,2013-12-31 03:39:00,
2013-12-30 21:44:00,41.1,27.9,30.32,NNW,344,4.0,6.0,59,0.00,,,0.00,Wunderground v.1.15,2013-12-31 03:44:00,
2013-12-30 21:45:00,41.1,27.9,30.32,NNW,346,4.0,6.0,59,0.00,,,0.00,Wunderground v.1.15,2013-12-31 03:45:00,
2013-12-30 21:46:00,41.1,27.9,30.32,NNW,342,3.0,6.0,59,0.00,,,0.00,Wunderground v.1.15,2013-12-31 03:46:00,
2013-12-30 21:48:00,41.1,27.9,30.32,NE,34,4.0,6.0,59,0.00,,,0.00,Wunderground v.1.15,2013-12-31 03:48:00,
2013-12-30 21:52:00,41.1,27.9,30.32,North,7,4.0,4.0,59,0.00,,,0.00,Wunderground v.1.15,2013-12-31 03:52:00,
2013-12-30 21:53:00,41.1,27.9,30.32,North,6,4.0,4.0,59,0.00,,,0.00,Wunderground v.1.15,2013-12-31 03:53:00,
2013-12-30 21:55:00,41.1,28.3,30.32,NNE,21,4.0,7.0,60,0.00,,,0.00,Wunderground v.1.15,2013-12-31 03:55:00,
2013-12-30 21:57:00,41.1,28.3,30.32,North,4,4.0,7.0,60,0.00,,,0.00,Wunderground v.1.15,2013-12-31 03:57:00,
2013-12-30 21:58:00,40.9,28.1,30.32,NNE,23,4.0,7.0,60,0.00,,,0.00,Wunderground v.1.15,2013-12-31 03:58:00,
2013-12-30 22:03:00,40.8,28.0,30.32,NNE,16,3.0,3.0,60,0.00,,,0.00,Wunderground v.1.15,2013-12-31 04:03:00,
2013-12-30 22:04:00,40.8,28.0,30.32,North,3,3.0,3.0,60,0.00,,,0.00,Wunderground v.1.15,2013-12-31 04:04:00,
2013-12-30 22:06:00,40.8,28.0,30.32,North,3,3.0,5.0,60,0.00,,,0.00,Wunderground v.1.15,2013-12-31 04:06:00,
2013-12-30 22:12:00,40.8,28.0,30.32,North,0,3.0,6.0,60,0.00,,,0.00,Wunderground v.1.15,2013-12-31 04:12:00,
2013-12-30 22:14:00,40.8,28.4,30.32,North,0,3.0,3.0,61,0.00,,,0.00,Wunderground v.1.15,2013-12-31 04:14:00,
2013-12-30 22:15:00,40.8,28.0,30.32,North,0,3.0,5.0,60,0.00,,,0.00,Wunderground v.1.15,2013-12-31 04:15:00,
2013-12-30 22:16:00,40.8,28.0,30.32,North,0,3.0,5.0,60,0.00,,,0.00,Wunderground v.1.15,2013-12-31 04:16:00,
2013-12-30 22:17:00,40.8,28.0,30.32,North,0,3.0,5.0,60,0.00,,,0.00,Wunderground v.1.15,2013-12-31 04:17:00,
2013-12-30 22:23:00,40.9,28.1,30.33,North,0,4.0,4.0,60,0.00,,,0.00,Wunderground v.1.15,2013-12-31 04:23:00,
2013-12-30 22:25:00,40.9,28.1,30.33,NNW,342,4.0,4.0,60,0.00,,,0.00,Wunderground v.1.15,2013-12-31 04:25:00,
2013-12-30 22:26:00,41.1,28.3,30.33,NNW,336,4.0,6.0,60,0.00,,,0.00,Wunderground v.1.15,2013-12-31 04:26:00,
2013-12-30 22:27:00,41.1,27.9,30.33,NW,325,4.0,6.0,59,0.00,,,0.00,Wunderground v.1.15,2013-12-31 04:27:00,
2013-12-30 22:33:00,41.3,27.6,30.33,North,0,4.0,4.0,58,0.00,,,0.00,Wunderground v.1.15,2013-12-31 04:33:00,
2013-12-30 22:34:00,41.3,27.6,30.33,North,10,4.0,4.0,58,0.00,,,0.00,Wunderground v.1.15,2013-12-31 04:34:00,
2013-12-30 22:35:00,41.3,27.6,30.33,North,10,4.0,4.0,58,0.00,,,0.00,Wunderground v.1.15,2013-12-31 04:35:00,
2013-12-30 22:37:00,41.3,27.6,30.33,North,10,3.0,4.0,58,0.00,,,0.00,Wunderground v.1.15,2013-12-31 04:37:00,
2013-12-30 22:39:00,41.3,27.6,30.33,North,0,3.0,4.0,58,0.00,,,0.00,Wunderground v.1.15,2013-12-31 04:39:00,
2013-12-30 22:42:00,41.3,27.6,30.33,North,0,2.0,4.0,58,0.00,,,0.00,Wunderground v.1.15,2013-12-31 04:42:00,
2013-12-30 22:43:00,41.3,27.6,30.33,North,0,2.0,2.0,58,0.00,,,0.00,Wunderground v.1.15,2013-12-31 04:43:00,
2013-12-30 22:45:00,41.2,27.9,30.33,North,0,1.0,2.0,59,0.00,,,0.00,Wunderground v.1.15,2013-12-31 04:45:00,
2013-12-30 22:46:00,41.2,27.9,30.33,North,0,1.0,2.0,59,0.00,,,0.00,Wunderground v.1.15,2013-12-31 04:46:00,
2013-12-30 22:47:00,41.2,27.9,30.33,North,0,1.0,2.0,59,0.00,,,0.00,Wunderground v.1.15,2013-12-31 04:47:00,
2013-12-30 22:48:00,41.1,28.3,30.34,North,0,1.0,2.0,60,0.00,,,0.00,Wunderground v.1.15,2013-12-31 04:48:00,
2013-12-30 22:49:00,41.1,28.3,30.34,North,0,0.0,2.0,60,0.00,,,0.00,Wunderground v.1.15,2013-12-31 04:49:00,
2013-12-30 22:53:00,40.9,28.1,30.34,North,0,0.0,0.0,60,0.00,,,0.00,Wunderground v.1.15,2013-12-31 04:53:00,
2013-12-30 22:54:00,40.9,28.1,30.34,North,0,0.0,0.0,60,0.00,,,0.00,Wunderground v.1.15,2013-12-31 04:54:00,
2013-12-30 22:55:00,40.9,28.1,30.34,North,0,0.0,0.0,60,0.00,,,0.00,Wunderground v.1.15,2013-12-31 04:55:00,
2013-12-30 22:57:00,40.8,28.4,30.34,North,0,0.0,0.0,61,0.00,,,0.00,Wunderground v.1.15,2013-12-31 04:57:00,
2013-12-30 22:58:00,40.8,28.4,30.34,North,0,0.0,0.0,61,0.00,,,0.00,Wunderground v.1.15,2013-12-31 04:58:00,
2013-12-30 23:02:00,40.8,28.4,30.34,North,0,0.0,0.0,61,0.00,,,0.00,Wunderground v.1.15,2013-12-31 05:02:00,
2013-12-30 23:03:00,40.6,28.6,30.34,North,0,0.0,0.0,62,0.00,,,0.00,Wunderground v.1.15,2013-12-31 05:03:00,
2013-12-30 23:05:00,40.5,28.5,30.34,North,0,0.0,0.0,62,0.00,,,0.00,Wunderground v.1.15,2013-12-31 05:05:00,
2013-12-30 23:08:00,40.3,28.7,30.34,North,0,0.0,0.0,63,0.00,,,0.00,Wunderground v.1.15,2013-12-31 05:08:00,
2013-12-30 23:13:00,40.1,28.5,30.34,North,0,0.0,0.0,63,0.00,,,0.00,Wunderground v.1.15,2013-12-31 05:13:00,
2013-12-30 23:14:00,40.1,28.9,30.34,North,0,0.0,0.0,64,0.00,,,0.00,Wunderground v.1.15,2013-12-31 05:14:00,
2013-12-30 23:15:00,40.1,28.9,30.34,North,0,0.0,0.0,64,0.00,,,0.00,Wunderground v.1.15,2013-12-31 05:15:00,
2013-12-30 23:19:00,39.9,29.1,30.34,North,0,0.0,0.0,65,0.00,,,0.00,Wunderground v.1.15,2013-12-31 05:19:00,
2013-12-30 23:22:00,39.9,29.1,30.34,North,0,0.0,0.0,65,0.00,,,0.00,Wunderground v.1.15,2013-12-31 05:22:00,
2013-12-30 23:23:00,39.9,29.5,30.34,North,0,0.0,0.0,66,0.00,,,0.00,Wunderground v.1.15,2013-12-31 05:23:00,
2013-12-30 23:24:00,39.8,29.4,30.34,North,0,0.0,0.0,66,0.00,,,0.00,Wunderground v.1.15,2013-12-31 05:24:00,
2013-12-30 23:27:00,39.8,29.4,30.34,North,0,0.0,0.0,66,0.00,,,0.00,Wunderground v.1.15,2013-12-31 05:27:00,
2013-12-30 23:29:00,39.8,29.4,30.34,North,0,0.0,0.0,66,0.00,,,0.00,Wunderground v.1.15,2013-12-31 05:29:00,
2013-12-30 23:32:00,39.6,29.2,30.34,North,0,0.0,0.0,66,0.00,,,0.00,Wunderground v.1.15,2013-12-31 05:32:00,
2013-12-30 23:33:00,39.6,29.5,30.34,North,0,0.0,0.0,67,0.00,,,0.00,Wunderground v.1.15,2013-12-31 05:33:00,
2013-12-30 23:35:00,39.6,29.5,30.34,North,0,0.0,0.0,67,0.00,,,0.00,Wunderground v.1.15,2013-12-31 05:35:00,
2013-12-30 23:36:00,39.5,29.4,30.34,North,0,0.0,0.0,67,0.00,,,0.00,Wunderground v.1.15,2013-12-31 05:36:00,
2013-12-30 23:42:00,39.3,29.3,30.34,North,0,0.0,0.0,67,0.00,,,0.00,Wunderground v.1.15,2013-12-31 05:42:00,
2013-12-30 23:43:00,39.3,29.3,30.34,North,0,0.0,0.0,67,0.00,,,0.00,Wunderground v.1.15,2013-12-31 05:43:00,
2013-12-30 23:48:00,39.2,29.2,30.34,North,0,0.0,0.0,67,0.00,,,0.00,Wunderground v.1.15,2013-12-31 05:48:00,
2013-12-30 23:49:00,39.2,29.2,30.34,North,0,0.0,0.0,67,0.00,,,0.00,Wunderground v.1.15,2013-12-31 05:49:00,
2013-12-30 23:53:00,39.2,29.5,30.34,North,0,0.0,0.0,68,0.00,,,0.00,Wunderground v.1.15,2013-12-31 05:53:00,
2013-12-30 23:54:00,39.2,29.5,30.34,North,0,0.0,0.0,68,0.00,,,0.00,Wunderground v.1.15,2013-12-31 05:54:00,
2013-12-30 23:55:00,39.2,29.5,30.34,North,0,0.0,0.0,68,0.00,,,0.00,Wunderground v.1.15,2013-12-31 05:55:00,
2013-12-30 23:56:00,39.1,29.4,30.34,North,0,0.0,0.0,68,0.00,,,0.00,Wunderground v.1.15,2013-12-31 05:56:00,
2013-12-30 23:58:00,39.1,29.4,30.34,North,0,0.0,0.0,68,0.00,,,0.00,Wunderground v.1.15,2013-12-31 05:58:00,
2013-12-30 23:59:00,39.1,29.4,30.34,North,0,0.0,0.0,68,0.00,,,0.00,Wunderground v.1.15,2013-12-31 05:59:00,